<?xml version="1.0" encoding="UTF-8" standalone="no" ?>
<gpx xmlns="http://www.topografix.com/GPX/1/1" xmlns:xsi="http://www.w3.org/2001/XMLSchema-instance" xsi:schemaLocation="http://www.topografix.com/GPX/1/1 http://www.topografix.com/GPX/1/1/gpx.xsd" version="1.1" creator="VisuGPX - https://www.visugpx.com">
  <metadata>
    <name>Crêtes du Taillefer</name>
    <desc><![CDATA[Un des plus beau belvédère du lac d\'Annecy]]></desc>
  </metadata>
  <trk>
    <name><![CDATA[Les Cretes du Taillefer]]></name>
    <trkseg>
      <trkpt lat="45.82753" lon="6.20228">
        <ele>452</ele>
        <time>2011-04-02T14:11:18Z</time>
      </trkpt>
      <trkpt lat="45.82749" lon="6.2023">
        <ele>453</ele>
        <time>2011-04-02T14:11:27Z</time>
      </trkpt>
      <trkpt lat="45.82742" lon="6.20233">
        <ele>454</ele>
        <time>2011-04-02T14:11:37Z</time>
      </trkpt>
      <trkpt lat="45.82738" lon="6.20236">
        <ele>452</ele>
        <time>2011-04-02T14:11:42Z</time>
      </trkpt>
      <trkpt lat="45.82727" lon="6.20242">
        <ele>453</ele>
        <time>2011-04-02T14:11:54Z</time>
      </trkpt>
      <trkpt lat="45.82724" lon="6.20242">
        <ele>453</ele>
        <time>2011-04-02T14:12:02Z</time>
      </trkpt>
      <trkpt lat="45.82709" lon="6.20244">
        <ele>453</ele>
        <time>2011-04-02T14:12:16Z</time>
      </trkpt>
      <trkpt lat="45.82712" lon="6.20266">
        <ele>453</ele>
        <time>2011-04-02T14:12:30Z</time>
      </trkpt>
      <trkpt lat="45.82714" lon="6.20289">
        <ele>453</ele>
        <time>2011-04-02T14:12:43Z</time>
      </trkpt>
      <trkpt lat="45.82709" lon="6.20306">
        <ele>453</ele>
        <time>2011-04-02T14:12:54Z</time>
      </trkpt>
      <trkpt lat="45.82705" lon="6.20322">
        <ele>453</ele>
        <time>2011-04-02T14:13:04Z</time>
      </trkpt>
      <trkpt lat="45.82702" lon="6.20338">
        <ele>453</ele>
        <time>2011-04-02T14:13:14Z</time>
      </trkpt>
      <trkpt lat="45.82698" lon="6.20353">
        <ele>454</ele>
        <time>2011-04-02T14:13:23Z</time>
      </trkpt>
      <trkpt lat="45.82701" lon="6.20375">
        <ele>454</ele>
        <time>2011-04-02T14:13:37Z</time>
      </trkpt>
      <trkpt lat="45.82702" lon="6.20382">
        <ele>455</ele>
        <time>2011-04-02T14:13:43Z</time>
      </trkpt>
      <trkpt lat="45.82705" lon="6.20404">
        <ele>455</ele>
        <time>2011-04-02T14:13:57Z</time>
      </trkpt>
      <trkpt lat="45.82712" lon="6.2042">
        <ele>456</ele>
        <time>2011-04-02T14:14:08Z</time>
      </trkpt>
      <trkpt lat="45.82726" lon="6.20433">
        <ele>457</ele>
        <time>2011-04-02T14:14:22Z</time>
      </trkpt>
      <trkpt lat="45.82738" lon="6.20443">
        <ele>458</ele>
        <time>2011-04-02T14:14:32Z</time>
      </trkpt>
      <trkpt lat="45.82751" lon="6.20456">
        <ele>458</ele>
        <time>2011-04-02T14:14:45Z</time>
      </trkpt>
      <trkpt lat="45.82762" lon="6.20463">
        <ele>458</ele>
        <time>2011-04-02T14:14:57Z</time>
      </trkpt>
      <trkpt lat="45.82761" lon="6.20465">
        <ele>458</ele>
        <time>2011-04-02T14:15:01Z</time>
      </trkpt>
      <trkpt lat="45.82769" lon="6.20478">
        <ele>461</ele>
        <time>2011-04-02T14:15:14Z</time>
      </trkpt>
      <trkpt lat="45.82776" lon="6.2049">
        <ele>463</ele>
        <time>2011-04-02T14:15:25Z</time>
      </trkpt>
      <trkpt lat="45.82784" lon="6.20503">
        <ele>466</ele>
        <time>2011-04-02T14:15:38Z</time>
      </trkpt>
      <trkpt lat="45.82789" lon="6.20516">
        <ele>469</ele>
        <time>2011-04-02T14:15:47Z</time>
      </trkpt>
      <trkpt lat="45.82785" lon="6.20518">
        <ele>471</ele>
        <time>2011-04-02T14:15:53Z</time>
      </trkpt>
      <trkpt lat="45.82778" lon="6.20515">
        <ele>472</ele>
        <time>2011-04-02T14:16:01Z</time>
      </trkpt>
      <trkpt lat="45.82767" lon="6.20509">
        <ele>475</ele>
        <time>2011-04-02T14:16:12Z</time>
      </trkpt>
      <trkpt lat="45.82756" lon="6.20504">
        <ele>476</ele>
        <time>2011-04-02T14:16:22Z</time>
      </trkpt>
      <trkpt lat="45.82755" lon="6.20504">
        <ele>476</ele>
        <time>2011-04-02T14:16:24Z</time>
      </trkpt>
      <trkpt lat="45.82757" lon="6.20512">
        <ele>477</ele>
        <time>2011-04-02T14:16:31Z</time>
      </trkpt>
      <trkpt lat="45.82763" lon="6.20528">
        <ele>480</ele>
        <time>2011-04-02T14:16:44Z</time>
      </trkpt>
      <trkpt lat="45.82763" lon="6.20544">
        <ele>482</ele>
        <time>2011-04-02T14:16:55Z</time>
      </trkpt>
      <trkpt lat="45.82761" lon="6.20557">
        <ele>484</ele>
        <time>2011-04-02T14:17:05Z</time>
      </trkpt>
      <trkpt lat="45.82757" lon="6.20571">
        <ele>486</ele>
        <time>2011-04-02T14:17:15Z</time>
      </trkpt>
      <trkpt lat="45.82751" lon="6.20578">
        <ele>489</ele>
        <time>2011-04-02T14:17:24Z</time>
      </trkpt>
      <trkpt lat="45.82742" lon="6.20584">
        <ele>490</ele>
        <time>2011-04-02T14:17:34Z</time>
      </trkpt>
      <trkpt lat="45.82733" lon="6.20588">
        <ele>492</ele>
        <time>2011-04-02T14:17:43Z</time>
      </trkpt>
      <trkpt lat="45.82723" lon="6.20594">
        <ele>494</ele>
        <time>2011-04-02T14:17:53Z</time>
      </trkpt>
      <trkpt lat="45.82721" lon="6.20594">
        <ele>495</ele>
        <time>2011-04-02T14:17:55Z</time>
      </trkpt>
      <trkpt lat="45.82711" lon="6.20595">
        <ele>497</ele>
        <time>2011-04-02T14:18:05Z</time>
      </trkpt>
      <trkpt lat="45.82712" lon="6.20593">
        <ele>497</ele>
        <time>2011-04-02T14:18:08Z</time>
      </trkpt>
      <trkpt lat="45.82715" lon="6.20589">
        <ele>498</ele>
        <time>2011-04-02T14:18:12Z</time>
      </trkpt>
      <trkpt lat="45.82722" lon="6.20575">
        <ele>500</ele>
        <time>2011-04-02T14:18:22Z</time>
      </trkpt>
      <trkpt lat="45.82726" lon="6.20567">
        <ele>502</ele>
        <time>2011-04-02T14:18:28Z</time>
      </trkpt>
      <trkpt lat="45.82723" lon="6.20553">
        <ele>504</ele>
        <time>2011-04-02T14:18:37Z</time>
      </trkpt>
      <trkpt lat="45.82718" lon="6.20537">
        <ele>506</ele>
        <time>2011-04-02T14:18:48Z</time>
      </trkpt>
      <trkpt lat="45.82713" lon="6.20526">
        <ele>507</ele>
        <time>2011-04-02T14:18:58Z</time>
      </trkpt>
      <trkpt lat="45.82715" lon="6.20522">
        <ele>507</ele>
        <time>2011-04-02T14:19:32Z</time>
      </trkpt>
      <trkpt lat="45.82716" lon="6.20536">
        <ele>509</ele>
        <time>2011-04-02T14:20:49Z</time>
      </trkpt>
      <trkpt lat="45.82716" lon="6.20542">
        <ele>510</ele>
        <time>2011-04-02T14:20:53Z</time>
      </trkpt>
      <trkpt lat="45.82716" lon="6.20553">
        <ele>512</ele>
        <time>2011-04-02T14:21:02Z</time>
      </trkpt>
      <trkpt lat="45.82712" lon="6.20556">
        <ele>513</ele>
        <time>2011-04-02T14:21:08Z</time>
      </trkpt>
      <trkpt lat="45.8271" lon="6.20546">
        <ele>514</ele>
        <time>2011-04-02T14:21:17Z</time>
      </trkpt>
      <trkpt lat="45.82708" lon="6.20552">
        <ele>516</ele>
        <time>2011-04-02T14:21:24Z</time>
      </trkpt>
      <trkpt lat="45.82707" lon="6.20549">
        <ele>516</ele>
        <time>2011-04-02T14:21:30Z</time>
      </trkpt>
      <trkpt lat="45.82706" lon="6.20546">
        <ele>517</ele>
        <time>2011-04-02T14:21:33Z</time>
      </trkpt>
      <trkpt lat="45.82703" lon="6.2054">
        <ele>519</ele>
        <time>2011-04-02T14:21:37Z</time>
      </trkpt>
      <trkpt lat="45.82696" lon="6.20534">
        <ele>520</ele>
        <time>2011-04-02T14:21:46Z</time>
      </trkpt>
      <trkpt lat="45.82696" lon="6.20536">
        <ele>521</ele>
        <time>2011-04-02T14:21:48Z</time>
      </trkpt>
      <trkpt lat="45.82695" lon="6.2055">
        <ele>523</ele>
        <time>2011-04-02T14:21:59Z</time>
      </trkpt>
      <trkpt lat="45.82694" lon="6.20547">
        <ele>524</ele>
        <time>2011-04-02T14:22:03Z</time>
      </trkpt>
      <trkpt lat="45.82689" lon="6.20533">
        <ele>526</ele>
        <time>2011-04-02T14:22:14Z</time>
      </trkpt>
      <trkpt lat="45.82687" lon="6.20531">
        <ele>528</ele>
        <time>2011-04-02T14:22:21Z</time>
      </trkpt>
      <trkpt lat="45.82688" lon="6.20534">
        <ele>528</ele>
        <time>2011-04-02T14:22:24Z</time>
      </trkpt>
      <trkpt lat="45.82685" lon="6.20544">
        <ele>529</ele>
        <time>2011-04-02T14:22:31Z</time>
      </trkpt>
      <trkpt lat="45.82681" lon="6.20555">
        <ele>531</ele>
        <time>2011-04-02T14:22:40Z</time>
      </trkpt>
      <trkpt lat="45.8267" lon="6.20561">
        <ele>533</ele>
        <time>2011-04-02T14:22:50Z</time>
      </trkpt>
      <trkpt lat="45.82664" lon="6.20563">
        <ele>534</ele>
        <time>2011-04-02T14:22:57Z</time>
      </trkpt>
      <trkpt lat="45.82654" lon="6.20566">
        <ele>536</ele>
        <time>2011-04-02T14:23:06Z</time>
      </trkpt>
      <trkpt lat="45.82649" lon="6.20568">
        <ele>537</ele>
        <time>2011-04-02T14:23:12Z</time>
      </trkpt>
      <trkpt lat="45.82645" lon="6.20571">
        <ele>539</ele>
        <time>2011-04-02T14:23:17Z</time>
      </trkpt>
      <trkpt lat="45.82642" lon="6.20574">
        <ele>540</ele>
        <time>2011-04-02T14:23:24Z</time>
      </trkpt>
      <trkpt lat="45.82633" lon="6.2058">
        <ele>542</ele>
        <time>2011-04-02T14:23:33Z</time>
      </trkpt>
      <trkpt lat="45.82625" lon="6.20579">
        <ele>543</ele>
        <time>2011-04-02T14:23:39Z</time>
      </trkpt>
      <trkpt lat="45.82626" lon="6.20566">
        <ele>545</ele>
        <time>2011-04-02T14:23:48Z</time>
      </trkpt>
      <trkpt lat="45.82629" lon="6.20556">
        <ele>547</ele>
        <time>2011-04-02T14:23:56Z</time>
      </trkpt>
      <trkpt lat="45.82633" lon="6.20545">
        <ele>550</ele>
        <time>2011-04-02T14:24:05Z</time>
      </trkpt>
      <trkpt lat="45.82633" lon="6.20544">
        <ele>550</ele>
        <time>2011-04-02T14:24:06Z</time>
      </trkpt>
      <trkpt lat="45.82633" lon="6.2054">
        <ele>550</ele>
        <time>2011-04-02T14:24:08Z</time>
      </trkpt>
      <trkpt lat="45.82632" lon="6.20532">
        <ele>551</ele>
        <time>2011-04-02T14:24:13Z</time>
      </trkpt>
      <trkpt lat="45.8263" lon="6.20525">
        <ele>553</ele>
        <time>2011-04-02T14:24:19Z</time>
      </trkpt>
      <trkpt lat="45.82625" lon="6.20519">
        <ele>553</ele>
        <time>2011-04-02T14:24:28Z</time>
      </trkpt>
      <trkpt lat="45.82623" lon="6.20527">
        <ele>556</ele>
        <time>2011-04-02T14:24:37Z</time>
      </trkpt>
      <trkpt lat="45.82617" lon="6.20534">
        <ele>557</ele>
        <time>2011-04-02T14:24:45Z</time>
      </trkpt>
      <trkpt lat="45.82611" lon="6.20539">
        <ele>559</ele>
        <time>2011-04-02T14:24:54Z</time>
      </trkpt>
      <trkpt lat="45.8261" lon="6.20536">
        <ele>560</ele>
        <time>2011-04-02T14:24:57Z</time>
      </trkpt>
      <trkpt lat="45.82609" lon="6.20531">
        <ele>562</ele>
        <time>2011-04-02T14:25:01Z</time>
      </trkpt>
      <trkpt lat="45.82607" lon="6.20519">
        <ele>563</ele>
        <time>2011-04-02T14:25:09Z</time>
      </trkpt>
      <trkpt lat="45.82604" lon="6.20517">
        <ele>564</ele>
        <time>2011-04-02T14:25:15Z</time>
      </trkpt>
      <trkpt lat="45.82599" lon="6.20529">
        <ele>567</ele>
        <time>2011-04-02T14:25:26Z</time>
      </trkpt>
      <trkpt lat="45.82594" lon="6.20534">
        <ele>568</ele>
        <time>2011-04-02T14:25:33Z</time>
      </trkpt>
      <trkpt lat="45.82584" lon="6.20538">
        <ele>570</ele>
        <time>2011-04-02T14:25:42Z</time>
      </trkpt>
      <trkpt lat="45.82574" lon="6.20543">
        <ele>574</ele>
        <time>2011-04-02T14:25:51Z</time>
      </trkpt>
      <trkpt lat="45.82562" lon="6.20546">
        <ele>575</ele>
        <time>2011-04-02T14:26:00Z</time>
      </trkpt>
      <trkpt lat="45.82561" lon="6.20543">
        <ele>576</ele>
        <time>2011-04-02T14:26:04Z</time>
      </trkpt>
      <trkpt lat="45.82566" lon="6.2053">
        <ele>578</ele>
        <time>2011-04-02T14:26:14Z</time>
      </trkpt>
      <trkpt lat="45.82567" lon="6.20527">
        <ele>578</ele>
        <time>2011-04-02T14:26:16Z</time>
      </trkpt>
      <trkpt lat="45.82569" lon="6.20509">
        <ele>580</ele>
        <time>2011-04-02T14:26:27Z</time>
      </trkpt>
      <trkpt lat="45.82573" lon="6.20497">
        <ele>583</ele>
        <time>2011-04-02T14:26:35Z</time>
      </trkpt>
      <trkpt lat="45.82576" lon="6.20488">
        <ele>584</ele>
        <time>2011-04-02T14:26:42Z</time>
      </trkpt>
      <trkpt lat="45.82573" lon="6.20478">
        <ele>584</ele>
        <time>2011-04-02T14:26:52Z</time>
      </trkpt>
      <trkpt lat="45.82574" lon="6.20478">
        <ele>585</ele>
        <time>2011-04-02T14:30:21Z</time>
      </trkpt>
      <trkpt lat="45.82572" lon="6.20483">
        <ele>586</ele>
        <time>2011-04-02T14:30:43Z</time>
      </trkpt>
      <trkpt lat="45.82566" lon="6.20492">
        <ele>588</ele>
        <time>2011-04-02T14:30:54Z</time>
      </trkpt>
      <trkpt lat="45.82564" lon="6.20493">
        <ele>588</ele>
        <time>2011-04-02T14:30:57Z</time>
      </trkpt>
      <trkpt lat="45.82557" lon="6.20496">
        <ele>590</ele>
        <time>2011-04-02T14:31:05Z</time>
      </trkpt>
      <trkpt lat="45.82552" lon="6.20501">
        <ele>591</ele>
        <time>2011-04-02T14:31:13Z</time>
      </trkpt>
      <trkpt lat="45.82551" lon="6.20506">
        <ele>592</ele>
        <time>2011-04-02T14:31:17Z</time>
      </trkpt>
      <trkpt lat="45.82541" lon="6.20512">
        <ele>595</ele>
        <time>2011-04-02T14:31:27Z</time>
      </trkpt>
      <trkpt lat="45.82534" lon="6.20513">
        <ele>596</ele>
        <time>2011-04-02T14:31:34Z</time>
      </trkpt>
      <trkpt lat="45.82523" lon="6.20514">
        <ele>597</ele>
        <time>2011-04-02T14:31:44Z</time>
      </trkpt>
      <trkpt lat="45.82515" lon="6.20513">
        <ele>598</ele>
        <time>2011-04-02T14:31:52Z</time>
      </trkpt>
      <trkpt lat="45.82508" lon="6.20515">
        <ele>600</ele>
        <time>2011-04-02T14:32:00Z</time>
      </trkpt>
      <trkpt lat="45.82497" lon="6.20513">
        <ele>602</ele>
        <time>2011-04-02T14:32:10Z</time>
      </trkpt>
      <trkpt lat="45.82487" lon="6.20512">
        <ele>603</ele>
        <time>2011-04-02T14:32:18Z</time>
      </trkpt>
      <trkpt lat="45.82484" lon="6.20508">
        <ele>604</ele>
        <time>2011-04-02T14:32:25Z</time>
      </trkpt>
      <trkpt lat="45.82487" lon="6.20504">
        <ele>605</ele>
        <time>2011-04-02T14:32:28Z</time>
      </trkpt>
      <trkpt lat="45.82497" lon="6.20496">
        <ele>606</ele>
        <time>2011-04-02T14:32:38Z</time>
      </trkpt>
      <trkpt lat="45.82503" lon="6.20491">
        <ele>607</ele>
        <time>2011-04-02T14:32:45Z</time>
      </trkpt>
      <trkpt lat="45.82505" lon="6.2049">
        <ele>608</ele>
        <time>2011-04-02T14:32:47Z</time>
      </trkpt>
      <trkpt lat="45.8251" lon="6.20482">
        <ele>610</ele>
        <time>2011-04-02T14:32:55Z</time>
      </trkpt>
      <trkpt lat="45.82506" lon="6.2048">
        <ele>612</ele>
        <time>2011-04-02T14:33:02Z</time>
      </trkpt>
      <trkpt lat="45.82499" lon="6.20479">
        <ele>613</ele>
        <time>2011-04-02T14:33:12Z</time>
      </trkpt>
      <trkpt lat="45.825" lon="6.20477">
        <ele>613</ele>
        <time>2011-04-02T14:33:14Z</time>
      </trkpt>
      <trkpt lat="45.82502" lon="6.20473">
        <ele>614</ele>
        <time>2011-04-02T14:33:17Z</time>
      </trkpt>
      <trkpt lat="45.82502" lon="6.20464">
        <ele>615</ele>
        <time>2011-04-02T14:33:22Z</time>
      </trkpt>
      <trkpt lat="45.82498" lon="6.20456">
        <ele>616</ele>
        <time>2011-04-02T14:33:31Z</time>
      </trkpt>
      <trkpt lat="45.82495" lon="6.20461">
        <ele>618</ele>
        <time>2011-04-02T14:33:36Z</time>
      </trkpt>
      <trkpt lat="45.82486" lon="6.20469">
        <ele>619</ele>
        <time>2011-04-02T14:33:47Z</time>
      </trkpt>
      <trkpt lat="45.82487" lon="6.2046">
        <ele>622</ele>
        <time>2011-04-02T14:33:54Z</time>
      </trkpt>
      <trkpt lat="45.82486" lon="6.20453">
        <ele>622</ele>
        <time>2011-04-02T14:33:59Z</time>
      </trkpt>
      <trkpt lat="45.82476" lon="6.2045">
        <ele>625</ele>
        <time>2011-04-02T14:34:09Z</time>
      </trkpt>
      <trkpt lat="45.82467" lon="6.20453">
        <ele>628</ele>
        <time>2011-04-02T14:34:21Z</time>
      </trkpt>
      <trkpt lat="45.82464" lon="6.20452">
        <ele>629</ele>
        <time>2011-04-02T14:34:24Z</time>
      </trkpt>
      <trkpt lat="45.82462" lon="6.2045">
        <ele>630</ele>
        <time>2011-04-02T14:34:26Z</time>
      </trkpt>
      <trkpt lat="45.82458" lon="6.20449">
        <ele>631</ele>
        <time>2011-04-02T14:34:31Z</time>
      </trkpt>
      <trkpt lat="45.8245" lon="6.20452">
        <ele>633</ele>
        <time>2011-04-02T14:34:41Z</time>
      </trkpt>
      <trkpt lat="45.82441" lon="6.20448">
        <ele>634</ele>
        <time>2011-04-02T14:34:47Z</time>
      </trkpt>
      <trkpt lat="45.82431" lon="6.2044">
        <ele>636</ele>
        <time>2011-04-02T14:34:54Z</time>
      </trkpt>
      <trkpt lat="45.82421" lon="6.20432">
        <ele>638</ele>
        <time>2011-04-02T14:35:01Z</time>
      </trkpt>
      <trkpt lat="45.82415" lon="6.2043">
        <ele>639</ele>
        <time>2011-04-02T14:35:07Z</time>
      </trkpt>
      <trkpt lat="45.82408" lon="6.20434">
        <ele>641</ele>
        <time>2011-04-02T14:35:19Z</time>
      </trkpt>
      <trkpt lat="45.82405" lon="6.20438">
        <ele>641</ele>
        <time>2011-04-02T14:35:30Z</time>
      </trkpt>
      <trkpt lat="45.82406" lon="6.20444">
        <ele>642</ele>
        <time>2011-04-02T14:35:38Z</time>
      </trkpt>
      <trkpt lat="45.82399" lon="6.20438">
        <ele>643</ele>
        <time>2011-04-02T14:40:11Z</time>
      </trkpt>
      <trkpt lat="45.82389" lon="6.2043">
        <ele>641</ele>
        <time>2011-04-02T14:40:21Z</time>
      </trkpt>
      <trkpt lat="45.82378" lon="6.20427">
        <ele>643</ele>
        <time>2011-04-02T14:40:31Z</time>
      </trkpt>
      <trkpt lat="45.82369" lon="6.20423">
        <ele>642</ele>
        <time>2011-04-02T14:40:39Z</time>
      </trkpt>
      <trkpt lat="45.82364" lon="6.20423">
        <ele>641</ele>
        <time>2011-04-02T14:40:43Z</time>
      </trkpt>
      <trkpt lat="45.8235" lon="6.20425">
        <ele>641</ele>
        <time>2011-04-02T14:40:55Z</time>
      </trkpt>
      <trkpt lat="45.82339" lon="6.20426">
        <ele>640</ele>
        <time>2011-04-02T14:41:04Z</time>
      </trkpt>
      <trkpt lat="45.82333" lon="6.20423">
        <ele>641</ele>
        <time>2011-04-02T14:41:10Z</time>
      </trkpt>
      <trkpt lat="45.8233" lon="6.20418">
        <ele>641</ele>
        <time>2011-04-02T14:41:14Z</time>
      </trkpt>
      <trkpt lat="45.82325" lon="6.20414">
        <ele>640</ele>
        <time>2011-04-02T14:41:20Z</time>
      </trkpt>
      <trkpt lat="45.82318" lon="6.2041">
        <ele>637</ele>
        <time>2011-04-02T14:41:29Z</time>
      </trkpt>
      <trkpt lat="45.82316" lon="6.20411">
        <ele>637</ele>
        <time>2011-04-02T14:41:33Z</time>
      </trkpt>
      <trkpt lat="45.82314" lon="6.20414">
        <ele>636</ele>
        <time>2011-04-02T14:41:36Z</time>
      </trkpt>
      <trkpt lat="45.82309" lon="6.20413">
        <ele>634</ele>
        <time>2011-04-02T14:41:42Z</time>
      </trkpt>
      <trkpt lat="45.82305" lon="6.20407">
        <ele>634</ele>
        <time>2011-04-02T14:41:48Z</time>
      </trkpt>
      <trkpt lat="45.823" lon="6.20395">
        <ele>636</ele>
        <time>2011-04-02T14:41:57Z</time>
      </trkpt>
      <trkpt lat="45.82296" lon="6.20386">
        <ele>638</ele>
        <time>2011-04-02T14:42:06Z</time>
      </trkpt>
      <trkpt lat="45.82292" lon="6.20377">
        <ele>639</ele>
        <time>2011-04-02T14:42:18Z</time>
      </trkpt>
      <trkpt lat="45.82288" lon="6.20369">
        <ele>640</ele>
        <time>2011-04-02T14:42:25Z</time>
      </trkpt>
      <trkpt lat="45.82283" lon="6.20363">
        <ele>642</ele>
        <time>2011-04-02T14:42:33Z</time>
      </trkpt>
      <trkpt lat="45.82277" lon="6.20362">
        <ele>644</ele>
        <time>2011-04-02T14:42:42Z</time>
      </trkpt>
      <trkpt lat="45.82271" lon="6.20359">
        <ele>645</ele>
        <time>2011-04-02T14:42:49Z</time>
      </trkpt>
      <trkpt lat="45.82263" lon="6.2036">
        <ele>646</ele>
        <time>2011-04-02T14:42:57Z</time>
      </trkpt>
      <trkpt lat="45.82261" lon="6.20358">
        <ele>646</ele>
        <time>2011-04-02T14:42:59Z</time>
      </trkpt>
      <trkpt lat="45.82252" lon="6.20354">
        <ele>646</ele>
        <time>2011-04-02T14:43:08Z</time>
      </trkpt>
      <trkpt lat="45.82242" lon="6.20343">
        <ele>645</ele>
        <time>2011-04-02T14:43:18Z</time>
      </trkpt>
      <trkpt lat="45.82234" lon="6.20335">
        <ele>645</ele>
        <time>2011-04-02T14:43:27Z</time>
      </trkpt>
      <trkpt lat="45.82223" lon="6.20329">
        <ele>644</ele>
        <time>2011-04-02T14:43:37Z</time>
      </trkpt>
      <trkpt lat="45.8221" lon="6.20324">
        <ele>645</ele>
        <time>2011-04-02T14:43:47Z</time>
      </trkpt>
      <trkpt lat="45.82205" lon="6.20326">
        <ele>645</ele>
        <time>2011-04-02T14:43:53Z</time>
      </trkpt>
      <trkpt lat="45.82202" lon="6.20331">
        <ele>646</ele>
        <time>2011-04-02T14:43:57Z</time>
      </trkpt>
      <trkpt lat="45.82189" lon="6.20329">
        <ele>647</ele>
        <time>2011-04-02T14:44:08Z</time>
      </trkpt>
      <trkpt lat="45.82179" lon="6.20322">
        <ele>650</ele>
        <time>2011-04-02T14:44:18Z</time>
      </trkpt>
      <trkpt lat="45.82168" lon="6.20318">
        <ele>650</ele>
        <time>2011-04-02T14:44:28Z</time>
      </trkpt>
      <trkpt lat="45.82161" lon="6.20312">
        <ele>651</ele>
        <time>2011-04-02T14:44:34Z</time>
      </trkpt>
      <trkpt lat="45.82152" lon="6.20305">
        <ele>651</ele>
        <time>2011-04-02T14:44:43Z</time>
      </trkpt>
      <trkpt lat="45.82143" lon="6.20301">
        <ele>653</ele>
        <time>2011-04-02T14:44:51Z</time>
      </trkpt>
      <trkpt lat="45.82143" lon="6.20301">
        <ele>653</ele>
        <time>2011-04-02T14:44:52Z</time>
      </trkpt>
      <trkpt lat="45.82134" lon="6.203">
        <ele>655</ele>
        <time>2011-04-02T14:45:01Z</time>
      </trkpt>
      <trkpt lat="45.82125" lon="6.20297">
        <ele>656</ele>
        <time>2011-04-02T14:45:09Z</time>
      </trkpt>
      <trkpt lat="45.82115" lon="6.20279">
        <ele>655</ele>
        <time>2011-04-02T14:45:16Z</time>
      </trkpt>
      <trkpt lat="45.82103" lon="6.20264">
        <ele>654</ele>
        <time>2011-04-02T14:45:23Z</time>
      </trkpt>
      <trkpt lat="45.82097" lon="6.20264">
        <ele>653</ele>
        <time>2011-04-02T14:45:28Z</time>
      </trkpt>
      <trkpt lat="45.82089" lon="6.20265">
        <ele>652</ele>
        <time>2011-04-02T14:45:36Z</time>
      </trkpt>
      <trkpt lat="45.82082" lon="6.2027">
        <ele>652</ele>
        <time>2011-04-02T14:45:44Z</time>
      </trkpt>
      <trkpt lat="45.82076" lon="6.2027">
        <ele>652</ele>
        <time>2011-04-02T14:45:49Z</time>
      </trkpt>
      <trkpt lat="45.82066" lon="6.20263">
        <ele>653</ele>
        <time>2011-04-02T14:45:58Z</time>
      </trkpt>
      <trkpt lat="45.82065" lon="6.20262">
        <ele>653</ele>
        <time>2011-04-02T14:45:59Z</time>
      </trkpt>
      <trkpt lat="45.82057" lon="6.20258">
        <ele>654</ele>
        <time>2011-04-02T14:46:07Z</time>
      </trkpt>
      <trkpt lat="45.82046" lon="6.20254">
        <ele>655</ele>
        <time>2011-04-02T14:46:16Z</time>
      </trkpt>
      <trkpt lat="45.82038" lon="6.20248">
        <ele>655</ele>
        <time>2011-04-02T14:46:24Z</time>
      </trkpt>
      <trkpt lat="45.82029" lon="6.20241">
        <ele>654</ele>
        <time>2011-04-02T14:46:32Z</time>
      </trkpt>
      <trkpt lat="45.82023" lon="6.20235">
        <ele>654</ele>
        <time>2011-04-02T14:46:38Z</time>
      </trkpt>
      <trkpt lat="45.82017" lon="6.20221">
        <ele>655</ele>
        <time>2011-04-02T14:46:47Z</time>
      </trkpt>
      <trkpt lat="45.82012" lon="6.20213">
        <ele>655</ele>
        <time>2011-04-02T14:46:53Z</time>
      </trkpt>
      <trkpt lat="45.82002" lon="6.20211">
        <ele>654</ele>
        <time>2011-04-02T14:47:02Z</time>
      </trkpt>
      <trkpt lat="45.81992" lon="6.20204">
        <ele>654</ele>
        <time>2011-04-02T14:47:10Z</time>
      </trkpt>
      <trkpt lat="45.81983" lon="6.20199">
        <ele>654</ele>
        <time>2011-04-02T14:47:19Z</time>
      </trkpt>
      <trkpt lat="45.8198" lon="6.20196">
        <ele>655</ele>
        <time>2011-04-02T14:47:22Z</time>
      </trkpt>
      <trkpt lat="45.81974" lon="6.20185">
        <ele>655</ele>
        <time>2011-04-02T14:47:31Z</time>
      </trkpt>
      <trkpt lat="45.81967" lon="6.20179">
        <ele>655</ele>
        <time>2011-04-02T14:47:39Z</time>
      </trkpt>
      <trkpt lat="45.81956" lon="6.20172">
        <ele>658</ele>
        <time>2011-04-02T14:47:49Z</time>
      </trkpt>
      <trkpt lat="45.81952" lon="6.20163">
        <ele>658</ele>
        <time>2011-04-02T14:47:56Z</time>
      </trkpt>
      <trkpt lat="45.8195" lon="6.20152">
        <ele>657</ele>
        <time>2011-04-02T14:48:03Z</time>
      </trkpt>
      <trkpt lat="45.81944" lon="6.20143">
        <ele>657</ele>
        <time>2011-04-02T14:48:13Z</time>
      </trkpt>
      <trkpt lat="45.81938" lon="6.20135">
        <ele>657</ele>
        <time>2011-04-02T14:49:48Z</time>
      </trkpt>
      <trkpt lat="45.81931" lon="6.20133">
        <ele>660</ele>
        <time>2011-04-02T14:51:22Z</time>
      </trkpt>
      <trkpt lat="45.8193" lon="6.20133">
        <ele>661</ele>
        <time>2011-04-02T14:51:23Z</time>
      </trkpt>
      <trkpt lat="45.81925" lon="6.20132">
        <ele>662</ele>
        <time>2011-04-02T14:51:33Z</time>
      </trkpt>
      <trkpt lat="45.81921" lon="6.20132">
        <ele>664</ele>
        <time>2011-04-02T14:51:40Z</time>
      </trkpt>
      <trkpt lat="45.81917" lon="6.20129">
        <ele>667</ele>
        <time>2011-04-02T14:51:49Z</time>
      </trkpt>
      <trkpt lat="45.81913" lon="6.20132">
        <ele>670</ele>
        <time>2011-04-02T14:51:58Z</time>
      </trkpt>
      <trkpt lat="45.81909" lon="6.20131">
        <ele>672</ele>
        <time>2011-04-02T14:52:07Z</time>
      </trkpt>
      <trkpt lat="45.81904" lon="6.2013">
        <ele>674</ele>
        <time>2011-04-02T14:52:16Z</time>
      </trkpt>
      <trkpt lat="45.81901" lon="6.20131">
        <ele>676</ele>
        <time>2011-04-02T14:52:21Z</time>
      </trkpt>
      <trkpt lat="45.81895" lon="6.20131">
        <ele>678</ele>
        <time>2011-04-02T14:52:30Z</time>
      </trkpt>
      <trkpt lat="45.81889" lon="6.20134">
        <ele>680</ele>
        <time>2011-04-02T14:52:38Z</time>
      </trkpt>
      <trkpt lat="45.81876" lon="6.20137">
        <ele>682</ele>
        <time>2011-04-02T14:52:49Z</time>
      </trkpt>
      <trkpt lat="45.81868" lon="6.20136">
        <ele>683</ele>
        <time>2011-04-02T14:52:57Z</time>
      </trkpt>
      <trkpt lat="45.81861" lon="6.20134">
        <ele>682</ele>
        <time>2011-04-02T14:53:04Z</time>
      </trkpt>
      <trkpt lat="45.81854" lon="6.20127">
        <ele>681</ele>
        <time>2011-04-02T14:53:13Z</time>
      </trkpt>
      <trkpt lat="45.81853" lon="6.20125">
        <ele>681</ele>
        <time>2011-04-02T14:53:15Z</time>
      </trkpt>
      <trkpt lat="45.81843" lon="6.20117">
        <ele>681</ele>
        <time>2011-04-02T14:53:25Z</time>
      </trkpt>
      <trkpt lat="45.81839" lon="6.20111">
        <ele>683</ele>
        <time>2011-04-02T14:53:34Z</time>
      </trkpt>
      <trkpt lat="45.81837" lon="6.20111">
        <ele>685</ele>
        <time>2011-04-02T14:53:40Z</time>
      </trkpt>
      <trkpt lat="45.81832" lon="6.2011">
        <ele>687</ele>
        <time>2011-04-02T14:53:47Z</time>
      </trkpt>
      <trkpt lat="45.81831" lon="6.201">
        <ele>689</ele>
        <time>2011-04-02T14:53:56Z</time>
      </trkpt>
      <trkpt lat="45.81826" lon="6.20097">
        <ele>691</ele>
        <time>2011-04-02T14:54:03Z</time>
      </trkpt>
      <trkpt lat="45.81822" lon="6.20095">
        <ele>692</ele>
        <time>2011-04-02T14:54:08Z</time>
      </trkpt>
      <trkpt lat="45.81815" lon="6.20089">
        <ele>695</ele>
        <time>2011-04-02T14:54:17Z</time>
      </trkpt>
      <trkpt lat="45.8181" lon="6.20081">
        <ele>698</ele>
        <time>2011-04-02T14:54:26Z</time>
      </trkpt>
      <trkpt lat="45.81808" lon="6.20071">
        <ele>700</ele>
        <time>2011-04-02T14:54:36Z</time>
      </trkpt>
      <trkpt lat="45.81805" lon="6.20076">
        <ele>701</ele>
        <time>2011-04-02T14:54:44Z</time>
      </trkpt>
      <trkpt lat="45.81802" lon="6.20079">
        <ele>703</ele>
        <time>2011-04-02T14:54:52Z</time>
      </trkpt>
      <trkpt lat="45.81799" lon="6.20083">
        <ele>705</ele>
        <time>2011-04-02T14:55:00Z</time>
      </trkpt>
      <trkpt lat="45.81796" lon="6.20083">
        <ele>707</ele>
        <time>2011-04-02T14:55:08Z</time>
      </trkpt>
      <trkpt lat="45.81793" lon="6.20082">
        <ele>709</ele>
        <time>2011-04-02T14:55:15Z</time>
      </trkpt>
      <trkpt lat="45.81788" lon="6.2008">
        <ele>711</ele>
        <time>2011-04-02T14:55:24Z</time>
      </trkpt>
      <trkpt lat="45.81783" lon="6.20076">
        <ele>712</ele>
        <time>2011-04-02T14:55:31Z</time>
      </trkpt>
      <trkpt lat="45.81779" lon="6.20078">
        <ele>713</ele>
        <time>2011-04-02T14:55:36Z</time>
      </trkpt>
      <trkpt lat="45.81773" lon="6.20079">
        <ele>714</ele>
        <time>2011-04-02T14:55:42Z</time>
      </trkpt>
      <trkpt lat="45.81763" lon="6.20075">
        <ele>717</ele>
        <time>2011-04-02T14:55:52Z</time>
      </trkpt>
      <trkpt lat="45.81761" lon="6.20074">
        <ele>717</ele>
        <time>2011-04-02T14:55:54Z</time>
      </trkpt>
      <trkpt lat="45.81753" lon="6.20071">
        <ele>719</ele>
        <time>2011-04-02T14:56:03Z</time>
      </trkpt>
      <trkpt lat="45.81747" lon="6.20072">
        <ele>722</ele>
        <time>2011-04-02T14:56:13Z</time>
      </trkpt>
      <trkpt lat="45.8174" lon="6.2007">
        <ele>723</ele>
        <time>2011-04-02T14:56:19Z</time>
      </trkpt>
      <trkpt lat="45.8173" lon="6.20067">
        <ele>724</ele>
        <time>2011-04-02T14:56:29Z</time>
      </trkpt>
      <trkpt lat="45.8172" lon="6.20071">
        <ele>723</ele>
        <time>2011-04-02T14:56:38Z</time>
      </trkpt>
      <trkpt lat="45.81716" lon="6.20076">
        <ele>723</ele>
        <time>2011-04-02T14:56:42Z</time>
      </trkpt>
      <trkpt lat="45.81705" lon="6.20075">
        <ele>725</ele>
        <time>2011-04-02T14:56:52Z</time>
      </trkpt>
      <trkpt lat="45.81696" lon="6.20071">
        <ele>725</ele>
        <time>2011-04-02T14:57:01Z</time>
      </trkpt>
      <trkpt lat="45.81692" lon="6.2007">
        <ele>724</ele>
        <time>2011-04-02T14:57:05Z</time>
      </trkpt>
      <trkpt lat="45.81688" lon="6.2006">
        <ele>723</ele>
        <time>2011-04-02T14:57:13Z</time>
      </trkpt>
      <trkpt lat="45.81681" lon="6.2006">
        <ele>723</ele>
        <time>2011-04-02T14:57:21Z</time>
      </trkpt>
      <trkpt lat="45.81679" lon="6.20058">
        <ele>723</ele>
        <time>2011-04-02T14:57:23Z</time>
      </trkpt>
      <trkpt lat="45.8167" lon="6.20057">
        <ele>724</ele>
        <time>2011-04-02T14:57:32Z</time>
      </trkpt>
      <trkpt lat="45.81669" lon="6.20055">
        <ele>726</ele>
        <time>2011-04-02T14:57:34Z</time>
      </trkpt>
      <trkpt lat="45.81665" lon="6.20055">
        <ele>727</ele>
        <time>2011-04-02T14:57:40Z</time>
      </trkpt>
      <trkpt lat="45.81659" lon="6.20051">
        <ele>728</ele>
        <time>2011-04-02T14:57:48Z</time>
      </trkpt>
      <trkpt lat="45.81655" lon="6.20054">
        <ele>731</ele>
        <time>2011-04-02T14:57:56Z</time>
      </trkpt>
      <trkpt lat="45.81654" lon="6.20049">
        <ele>733</ele>
        <time>2011-04-02T14:58:03Z</time>
      </trkpt>
      <trkpt lat="45.81652" lon="6.20044">
        <ele>735</ele>
        <time>2011-04-02T14:58:10Z</time>
      </trkpt>
      <trkpt lat="45.81649" lon="6.20049">
        <ele>736</ele>
        <time>2011-04-02T14:58:18Z</time>
      </trkpt>
      <trkpt lat="45.81647" lon="6.20051">
        <ele>739</ele>
        <time>2011-04-02T14:58:27Z</time>
      </trkpt>
      <trkpt lat="45.81645" lon="6.20051">
        <ele>741</ele>
        <time>2011-04-02T14:58:36Z</time>
      </trkpt>
      <trkpt lat="45.81643" lon="6.2005">
        <ele>742</ele>
        <time>2011-04-02T14:58:38Z</time>
      </trkpt>
      <trkpt lat="45.81634" lon="6.20051">
        <ele>743</ele>
        <time>2011-04-02T14:58:48Z</time>
      </trkpt>
      <trkpt lat="45.81625" lon="6.20049">
        <ele>744</ele>
        <time>2011-04-02T14:58:57Z</time>
      </trkpt>
      <trkpt lat="45.81618" lon="6.20049">
        <ele>745</ele>
        <time>2011-04-02T14:59:05Z</time>
      </trkpt>
      <trkpt lat="45.81611" lon="6.20051">
        <ele>745</ele>
        <time>2011-04-02T14:59:13Z</time>
      </trkpt>
      <trkpt lat="45.81604" lon="6.20041">
        <ele>747</ele>
        <time>2011-04-02T15:11:43Z</time>
      </trkpt>
      <trkpt lat="45.81596" lon="6.20033">
        <ele>747</ele>
        <time>2011-04-02T15:11:54Z</time>
      </trkpt>
      <trkpt lat="45.81586" lon="6.20028">
        <ele>746</ele>
        <time>2011-04-02T15:12:05Z</time>
      </trkpt>
      <trkpt lat="45.81581" lon="6.20021">
        <ele>745</ele>
        <time>2011-04-02T15:12:14Z</time>
      </trkpt>
      <trkpt lat="45.81576" lon="6.20018">
        <ele>742</ele>
        <time>2011-04-02T15:12:22Z</time>
      </trkpt>
      <trkpt lat="45.81574" lon="6.20018">
        <ele>741</ele>
        <time>2011-04-02T15:12:24Z</time>
      </trkpt>
      <trkpt lat="45.8157" lon="6.20017">
        <ele>740</ele>
        <time>2011-04-02T15:12:30Z</time>
      </trkpt>
      <trkpt lat="45.81563" lon="6.20026">
        <ele>741</ele>
        <time>2011-04-02T15:12:39Z</time>
      </trkpt>
      <trkpt lat="45.8156" lon="6.20032">
        <ele>742</ele>
        <time>2011-04-02T15:12:47Z</time>
      </trkpt>
      <trkpt lat="45.81556" lon="6.20035">
        <ele>745</ele>
        <time>2011-04-02T15:12:54Z</time>
      </trkpt>
      <trkpt lat="45.81556" lon="6.20034">
        <ele>747</ele>
        <time>2011-04-02T15:13:04Z</time>
      </trkpt>
      <trkpt lat="45.81555" lon="6.20035">
        <ele>748</ele>
        <time>2011-04-02T15:13:13Z</time>
      </trkpt>
      <trkpt lat="45.81552" lon="6.20036">
        <ele>750</ele>
        <time>2011-04-02T15:13:26Z</time>
      </trkpt>
      <trkpt lat="45.81546" lon="6.20035">
        <ele>753</ele>
        <time>2011-04-02T15:13:35Z</time>
      </trkpt>
      <trkpt lat="45.81542" lon="6.20031">
        <ele>754</ele>
        <time>2011-04-02T15:13:43Z</time>
      </trkpt>
      <trkpt lat="45.81537" lon="6.20029">
        <ele>754</ele>
        <time>2011-04-02T15:13:49Z</time>
      </trkpt>
      <trkpt lat="45.8153" lon="6.20026">
        <ele>754</ele>
        <time>2011-04-02T15:13:58Z</time>
      </trkpt>
      <trkpt lat="45.81526" lon="6.20022">
        <ele>756</ele>
        <time>2011-04-02T15:14:05Z</time>
      </trkpt>
      <trkpt lat="45.81525" lon="6.20016">
        <ele>757</ele>
        <time>2011-04-02T15:14:14Z</time>
      </trkpt>
      <trkpt lat="45.81525" lon="6.20013">
        <ele>758</ele>
        <time>2011-04-02T15:14:21Z</time>
      </trkpt>
      <trkpt lat="45.8152" lon="6.20014">
        <ele>760</ele>
        <time>2011-04-02T15:14:29Z</time>
      </trkpt>
      <trkpt lat="45.81516" lon="6.20013">
        <ele>759</ele>
        <time>2011-04-02T15:14:34Z</time>
      </trkpt>
      <trkpt lat="45.81509" lon="6.20008">
        <ele>760</ele>
        <time>2011-04-02T15:14:43Z</time>
      </trkpt>
      <trkpt lat="45.81502" lon="6.20002">
        <ele>759</ele>
        <time>2011-04-02T15:14:52Z</time>
      </trkpt>
      <trkpt lat="45.81498" lon="6.20002">
        <ele>761</ele>
        <time>2011-04-02T15:15:00Z</time>
      </trkpt>
      <trkpt lat="45.81494" lon="6.19999">
        <ele>763</ele>
        <time>2011-04-02T15:15:10Z</time>
      </trkpt>
      <trkpt lat="45.81492" lon="6.2">
        <ele>763</ele>
        <time>2011-04-02T15:15:24Z</time>
      </trkpt>
      <trkpt lat="45.81495" lon="6.19997">
        <ele>764</ele>
        <time>2011-04-02T15:18:20Z</time>
      </trkpt>
      <trkpt lat="45.81497" lon="6.2">
        <ele>764</ele>
        <time>2011-04-02T15:18:28Z</time>
      </trkpt>
      <trkpt lat="45.81498" lon="6.20005">
        <ele>762</ele>
        <time>2011-04-02T15:18:35Z</time>
      </trkpt>
      <trkpt lat="45.81494" lon="6.2001">
        <ele>761</ele>
        <time>2011-04-02T15:18:43Z</time>
      </trkpt>
      <trkpt lat="45.8149" lon="6.20009">
        <ele>759</ele>
        <time>2011-04-02T15:18:50Z</time>
      </trkpt>
      <trkpt lat="45.81484" lon="6.20003">
        <ele>758</ele>
        <time>2011-04-02T15:18:56Z</time>
      </trkpt>
      <trkpt lat="45.81477" lon="6.20005">
        <ele>757</ele>
        <time>2011-04-02T15:19:05Z</time>
      </trkpt>
      <trkpt lat="45.81475" lon="6.20005">
        <ele>756</ele>
        <time>2011-04-02T15:19:08Z</time>
      </trkpt>
      <trkpt lat="45.81471" lon="6.20005">
        <ele>754</ele>
        <time>2011-04-02T15:19:15Z</time>
      </trkpt>
      <trkpt lat="45.81465" lon="6.20004">
        <ele>752</ele>
        <time>2011-04-02T15:19:23Z</time>
      </trkpt>
      <trkpt lat="45.81459" lon="6.20003">
        <ele>749</ele>
        <time>2011-04-02T15:19:31Z</time>
      </trkpt>
      <trkpt lat="45.81454" lon="6.20005">
        <ele>749</ele>
        <time>2011-04-02T15:19:38Z</time>
      </trkpt>
      <trkpt lat="45.81446" lon="6.20019">
        <ele>749</ele>
        <time>2011-04-02T15:19:48Z</time>
      </trkpt>
      <trkpt lat="45.8144" lon="6.20022">
        <ele>750</ele>
        <time>2011-04-02T15:19:57Z</time>
      </trkpt>
      <trkpt lat="45.81438" lon="6.20022">
        <ele>751</ele>
        <time>2011-04-02T15:20:00Z</time>
      </trkpt>
      <trkpt lat="45.8143" lon="6.2002">
        <ele>753</ele>
        <time>2011-04-02T15:20:09Z</time>
      </trkpt>
      <trkpt lat="45.81421" lon="6.20021">
        <ele>752</ele>
        <time>2011-04-02T15:20:18Z</time>
      </trkpt>
      <trkpt lat="45.81411" lon="6.20024">
        <ele>751</ele>
        <time>2011-04-02T15:20:27Z</time>
      </trkpt>
      <trkpt lat="45.81401" lon="6.20025">
        <ele>750</ele>
        <time>2011-04-02T15:20:36Z</time>
      </trkpt>
      <trkpt lat="45.81394" lon="6.20033">
        <ele>749</ele>
        <time>2011-04-02T15:20:44Z</time>
      </trkpt>
      <trkpt lat="45.81385" lon="6.20035">
        <ele>748</ele>
        <time>2011-04-02T15:20:54Z</time>
      </trkpt>
      <trkpt lat="45.81375" lon="6.20035">
        <ele>747</ele>
        <time>2011-04-02T15:21:03Z</time>
      </trkpt>
      <trkpt lat="45.81367" lon="6.20037">
        <ele>747</ele>
        <time>2011-04-02T15:21:10Z</time>
      </trkpt>
      <trkpt lat="45.81366" lon="6.20037">
        <ele>748</ele>
        <time>2011-04-02T15:21:11Z</time>
      </trkpt>
      <trkpt lat="45.81361" lon="6.2004">
        <ele>747</ele>
        <time>2011-04-02T15:21:16Z</time>
      </trkpt>
      <trkpt lat="45.81352" lon="6.20039">
        <ele>746</ele>
        <time>2011-04-02T15:21:24Z</time>
      </trkpt>
      <trkpt lat="45.81346" lon="6.20039">
        <ele>746</ele>
        <time>2011-04-02T15:21:29Z</time>
      </trkpt>
      <trkpt lat="45.81341" lon="6.20032">
        <ele>746</ele>
        <time>2011-04-02T15:21:37Z</time>
      </trkpt>
      <trkpt lat="45.81339" lon="6.20024">
        <ele>745</ele>
        <time>2011-04-02T15:21:44Z</time>
      </trkpt>
      <trkpt lat="45.81334" lon="6.20013">
        <ele>745</ele>
        <time>2011-04-02T15:21:52Z</time>
      </trkpt>
      <trkpt lat="45.81333" lon="6.20011">
        <ele>746</ele>
        <time>2011-04-02T15:21:54Z</time>
      </trkpt>
      <trkpt lat="45.81325" lon="6.20008">
        <ele>745</ele>
        <time>2011-04-02T15:22:02Z</time>
      </trkpt>
      <trkpt lat="45.81316" lon="6.20005">
        <ele>744</ele>
        <time>2011-04-02T15:22:11Z</time>
      </trkpt>
      <trkpt lat="45.81308" lon="6.20003">
        <ele>744</ele>
        <time>2011-04-02T15:22:19Z</time>
      </trkpt>
      <trkpt lat="45.81299" lon="6.2">
        <ele>745</ele>
        <time>2011-04-02T15:22:27Z</time>
      </trkpt>
      <trkpt lat="45.81294" lon="6.19993">
        <ele>748</ele>
        <time>2011-04-02T15:22:34Z</time>
      </trkpt>
      <trkpt lat="45.81293" lon="6.19991">
        <ele>748</ele>
        <time>2011-04-02T15:22:36Z</time>
      </trkpt>
      <trkpt lat="45.8129" lon="6.19975">
        <ele>749</ele>
        <time>2011-04-02T15:22:47Z</time>
      </trkpt>
      <trkpt lat="45.81284" lon="6.19968">
        <ele>749</ele>
        <time>2011-04-02T15:22:56Z</time>
      </trkpt>
      <trkpt lat="45.8128" lon="6.19966">
        <ele>751</ele>
        <time>2011-04-02T15:23:04Z</time>
      </trkpt>
      <trkpt lat="45.81275" lon="6.19959">
        <ele>753</ele>
        <time>2011-04-02T15:23:12Z</time>
      </trkpt>
      <trkpt lat="45.81271" lon="6.1995">
        <ele>754</ele>
        <time>2011-04-02T15:23:22Z</time>
      </trkpt>
      <trkpt lat="45.81265" lon="6.19948">
        <ele>757</ele>
        <time>2011-04-02T15:23:30Z</time>
      </trkpt>
      <trkpt lat="45.81258" lon="6.19946">
        <ele>758</ele>
        <time>2011-04-02T15:23:39Z</time>
      </trkpt>
      <trkpt lat="45.8125" lon="6.19941">
        <ele>758</ele>
        <time>2011-04-02T15:23:48Z</time>
      </trkpt>
      <trkpt lat="45.81247" lon="6.1994">
        <ele>758</ele>
        <time>2011-04-02T15:23:51Z</time>
      </trkpt>
      <trkpt lat="45.81237" lon="6.19938">
        <ele>759</ele>
        <time>2011-04-02T15:24:02Z</time>
      </trkpt>
      <trkpt lat="45.81229" lon="6.19934">
        <ele>760</ele>
        <time>2011-04-02T15:24:11Z</time>
      </trkpt>
      <trkpt lat="45.81227" lon="6.19932">
        <ele>760</ele>
        <time>2011-04-02T15:24:14Z</time>
      </trkpt>
      <trkpt lat="45.81222" lon="6.19921">
        <ele>761</ele>
        <time>2011-04-02T15:24:24Z</time>
      </trkpt>
      <trkpt lat="45.8122" lon="6.19919">
        <ele>761</ele>
        <time>2011-04-02T15:24:27Z</time>
      </trkpt>
      <trkpt lat="45.81212" lon="6.19912">
        <ele>761</ele>
        <time>2011-04-02T15:24:38Z</time>
      </trkpt>
      <trkpt lat="45.81206" lon="6.19909">
        <ele>762</ele>
        <time>2011-04-02T15:24:47Z</time>
      </trkpt>
      <trkpt lat="45.81205" lon="6.1991">
        <ele>763</ele>
        <time>2011-04-02T15:24:55Z</time>
      </trkpt>
      <trkpt lat="45.81206" lon="6.19913">
        <ele>763</ele>
        <time>2011-04-02T15:25:14Z</time>
      </trkpt>
      <trkpt lat="45.81207" lon="6.19919">
        <ele>764</ele>
        <time>2011-04-02T15:25:23Z</time>
      </trkpt>
      <trkpt lat="45.81207" lon="6.19922">
        <ele>765</ele>
        <time>2011-04-02T15:25:32Z</time>
      </trkpt>
      <trkpt lat="45.81208" lon="6.19926">
        <ele>767</ele>
        <time>2011-04-02T15:25:51Z</time>
      </trkpt>
      <trkpt lat="45.81207" lon="6.19927">
        <ele>767</ele>
        <time>2011-04-02T15:26:09Z</time>
      </trkpt>
      <trkpt lat="45.81207" lon="6.19924">
        <ele>767</ele>
        <time>2011-04-02T15:26:52Z</time>
      </trkpt>
      <trkpt lat="45.81206" lon="6.19921">
        <ele>765</ele>
        <time>2011-04-02T15:27:08Z</time>
      </trkpt>
      <trkpt lat="45.81205" lon="6.19918">
        <ele>765</ele>
        <time>2011-04-02T15:27:51Z</time>
      </trkpt>
      <trkpt lat="45.81204" lon="6.19913">
        <ele>763</ele>
        <time>2011-04-02T15:27:58Z</time>
      </trkpt>
      <trkpt lat="45.81203" lon="6.19909">
        <ele>763</ele>
        <time>2011-04-02T15:28:05Z</time>
      </trkpt>
      <trkpt lat="45.81205" lon="6.19906">
        <ele>762</ele>
        <time>2011-04-02T15:28:11Z</time>
      </trkpt>
      <trkpt lat="45.81208" lon="6.19905">
        <ele>761</ele>
        <time>2011-04-02T15:28:18Z</time>
      </trkpt>
      <trkpt lat="45.81208" lon="6.19902">
        <ele>761</ele>
        <time>2011-04-02T15:28:26Z</time>
      </trkpt>
      <trkpt lat="45.81206" lon="6.19897">
        <ele>760</ele>
        <time>2011-04-02T15:28:34Z</time>
      </trkpt>
      <trkpt lat="45.81203" lon="6.19895">
        <ele>760</ele>
        <time>2011-04-02T15:28:42Z</time>
      </trkpt>
      <trkpt lat="45.81204" lon="6.19893">
        <ele>759</ele>
        <time>2011-04-02T15:28:57Z</time>
      </trkpt>
      <trkpt lat="45.81202" lon="6.19891">
        <ele>757</ele>
        <time>2011-04-02T15:29:04Z</time>
      </trkpt>
      <trkpt lat="45.812" lon="6.1989">
        <ele>755</ele>
        <time>2011-04-02T15:29:09Z</time>
      </trkpt>
      <trkpt lat="45.812" lon="6.19887">
        <ele>754</ele>
        <time>2011-04-02T15:29:16Z</time>
      </trkpt>
      <trkpt lat="45.81199" lon="6.19885">
        <ele>754</ele>
        <time>2011-04-02T15:29:23Z</time>
      </trkpt>
      <trkpt lat="45.81202" lon="6.19887">
        <ele>755</ele>
        <time>2011-04-02T15:29:40Z</time>
      </trkpt>
      <trkpt lat="45.81199" lon="6.19885">
        <ele>754</ele>
        <time>2011-04-02T15:29:48Z</time>
      </trkpt>
      <trkpt lat="45.81193" lon="6.19883">
        <ele>754</ele>
        <time>2011-04-02T15:29:56Z</time>
      </trkpt>
      <trkpt lat="45.81185" lon="6.19881">
        <ele>754</ele>
        <time>2011-04-02T15:30:04Z</time>
      </trkpt>
      <trkpt lat="45.81177" lon="6.1988">
        <ele>754</ele>
        <time>2011-04-02T15:30:12Z</time>
      </trkpt>
      <trkpt lat="45.81176" lon="6.19878">
        <ele>754</ele>
        <time>2011-04-02T15:30:14Z</time>
      </trkpt>
      <trkpt lat="45.81168" lon="6.19878">
        <ele>755</ele>
        <time>2011-04-02T15:30:23Z</time>
      </trkpt>
      <trkpt lat="45.81166" lon="6.19875">
        <ele>755</ele>
        <time>2011-04-02T15:30:26Z</time>
      </trkpt>
      <trkpt lat="45.81166" lon="6.19871">
        <ele>754</ele>
        <time>2011-04-02T15:30:28Z</time>
      </trkpt>
      <trkpt lat="45.81162" lon="6.19863">
        <ele>753</ele>
        <time>2011-04-02T15:30:36Z</time>
      </trkpt>
      <trkpt lat="45.81158" lon="6.19856">
        <ele>751</ele>
        <time>2011-04-02T15:30:45Z</time>
      </trkpt>
      <trkpt lat="45.81157" lon="6.19854">
        <ele>749</ele>
        <time>2011-04-02T15:30:48Z</time>
      </trkpt>
      <trkpt lat="45.81148" lon="6.1985">
        <ele>748</ele>
        <time>2011-04-02T15:30:57Z</time>
      </trkpt>
      <trkpt lat="45.8114" lon="6.19845">
        <ele>746</ele>
        <time>2011-04-02T15:31:07Z</time>
      </trkpt>
      <trkpt lat="45.81135" lon="6.19843">
        <ele>744</ele>
        <time>2011-04-02T15:31:17Z</time>
      </trkpt>
      <trkpt lat="45.81133" lon="6.1984">
        <ele>742</ele>
        <time>2011-04-02T15:31:26Z</time>
      </trkpt>
      <trkpt lat="45.81132" lon="6.19837">
        <ele>740</ele>
        <time>2011-04-02T15:31:34Z</time>
      </trkpt>
      <trkpt lat="45.81129" lon="6.19833">
        <ele>738</ele>
        <time>2011-04-02T15:31:41Z</time>
      </trkpt>
      <trkpt lat="45.8113" lon="6.19828">
        <ele>737</ele>
        <time>2011-04-02T15:31:47Z</time>
      </trkpt>
      <trkpt lat="45.81132" lon="6.19826">
        <ele>736</ele>
        <time>2011-04-02T15:31:56Z</time>
      </trkpt>
      <trkpt lat="45.81129" lon="6.1982">
        <ele>733</ele>
        <time>2011-04-02T15:32:05Z</time>
      </trkpt>
      <trkpt lat="45.81129" lon="6.19816">
        <ele>732</ele>
        <time>2011-04-02T15:32:12Z</time>
      </trkpt>
      <trkpt lat="45.81124" lon="6.19812">
        <ele>729</ele>
        <time>2011-04-02T15:32:20Z</time>
      </trkpt>
      <trkpt lat="45.81121" lon="6.19807">
        <ele>727</ele>
        <time>2011-04-02T15:32:29Z</time>
      </trkpt>
      <trkpt lat="45.81117" lon="6.19801">
        <ele>725</ele>
        <time>2011-04-02T15:32:37Z</time>
      </trkpt>
      <trkpt lat="45.81113" lon="6.19797">
        <ele>724</ele>
        <time>2011-04-02T15:32:44Z</time>
      </trkpt>
      <trkpt lat="45.81113" lon="6.19793">
        <ele>722</ele>
        <time>2011-04-02T15:32:48Z</time>
      </trkpt>
      <trkpt lat="45.81115" lon="6.19787">
        <ele>720</ele>
        <time>2011-04-02T15:32:55Z</time>
      </trkpt>
      <trkpt lat="45.8111" lon="6.19783">
        <ele>719</ele>
        <time>2011-04-02T15:33:00Z</time>
      </trkpt>
      <trkpt lat="45.81105" lon="6.19777">
        <ele>719</ele>
        <time>2011-04-02T15:33:06Z</time>
      </trkpt>
      <trkpt lat="45.81102" lon="6.19769">
        <ele>718</ele>
        <time>2011-04-02T15:33:13Z</time>
      </trkpt>
      <trkpt lat="45.81097" lon="6.19759">
        <ele>716</ele>
        <time>2011-04-02T15:33:21Z</time>
      </trkpt>
      <trkpt lat="45.8109" lon="6.19755">
        <ele>715</ele>
        <time>2011-04-02T15:33:28Z</time>
      </trkpt>
      <trkpt lat="45.81083" lon="6.19752">
        <ele>716</ele>
        <time>2011-04-02T15:33:35Z</time>
      </trkpt>
      <trkpt lat="45.81077" lon="6.19747">
        <ele>718</ele>
        <time>2011-04-02T15:33:44Z</time>
      </trkpt>
      <trkpt lat="45.81072" lon="6.19749">
        <ele>721</ele>
        <time>2011-04-02T15:33:52Z</time>
      </trkpt>
      <trkpt lat="45.81066" lon="6.19748">
        <ele>722</ele>
        <time>2011-04-02T15:34:00Z</time>
      </trkpt>
      <trkpt lat="45.81057" lon="6.1974">
        <ele>724</ele>
        <time>2011-04-02T15:34:08Z</time>
      </trkpt>
      <trkpt lat="45.81049" lon="6.19737">
        <ele>725</ele>
        <time>2011-04-02T15:34:19Z</time>
      </trkpt>
      <trkpt lat="45.81042" lon="6.19735">
        <ele>727</ele>
        <time>2011-04-02T15:34:28Z</time>
      </trkpt>
      <trkpt lat="45.8104" lon="6.19733">
        <ele>727</ele>
        <time>2011-04-02T15:34:30Z</time>
      </trkpt>
      <trkpt lat="45.81038" lon="6.19729">
        <ele>727</ele>
        <time>2011-04-02T15:34:32Z</time>
      </trkpt>
      <trkpt lat="45.81032" lon="6.19721">
        <ele>727</ele>
        <time>2011-04-02T15:34:37Z</time>
      </trkpt>
      <trkpt lat="45.8103" lon="6.19719">
        <ele>728</ele>
        <time>2011-04-02T15:34:39Z</time>
      </trkpt>
      <trkpt lat="45.81019" lon="6.1971">
        <ele>725</ele>
        <time>2011-04-02T15:34:48Z</time>
      </trkpt>
      <trkpt lat="45.81014" lon="6.19707">
        <ele>724</ele>
        <time>2011-04-02T15:34:53Z</time>
      </trkpt>
      <trkpt lat="45.81009" lon="6.19702">
        <ele>724</ele>
        <time>2011-04-02T15:34:58Z</time>
      </trkpt>
      <trkpt lat="45.81001" lon="6.19693">
        <ele>722</ele>
        <time>2011-04-02T15:35:07Z</time>
      </trkpt>
      <trkpt lat="45.80997" lon="6.19694">
        <ele>724</ele>
        <time>2011-04-02T15:35:15Z</time>
      </trkpt>
      <trkpt lat="45.80992" lon="6.19693">
        <ele>724</ele>
        <time>2011-04-02T15:35:21Z</time>
      </trkpt>
      <trkpt lat="45.80987" lon="6.19691">
        <ele>726</ele>
        <time>2011-04-02T15:35:26Z</time>
      </trkpt>
      <trkpt lat="45.80979" lon="6.19684">
        <ele>727</ele>
        <time>2011-04-02T15:35:35Z</time>
      </trkpt>
      <trkpt lat="45.80978" lon="6.19677">
        <ele>726</ele>
        <time>2011-04-02T15:35:42Z</time>
      </trkpt>
      <trkpt lat="45.80971" lon="6.19671">
        <ele>724</ele>
        <time>2011-04-02T15:35:54Z</time>
      </trkpt>
      <trkpt lat="45.80968" lon="6.1967">
        <ele>724</ele>
        <time>2011-04-02T15:36:01Z</time>
      </trkpt>
      <trkpt lat="45.80963" lon="6.19666">
        <ele>722</ele>
        <time>2011-04-02T15:36:08Z</time>
      </trkpt>
      <trkpt lat="45.80957" lon="6.19667">
        <ele>724</ele>
        <time>2011-04-02T15:36:17Z</time>
      </trkpt>
      <trkpt lat="45.8095" lon="6.19666">
        <ele>725</ele>
        <time>2011-04-02T15:36:26Z</time>
      </trkpt>
      <trkpt lat="45.80945" lon="6.19665">
        <ele>726</ele>
        <time>2011-04-02T15:36:34Z</time>
      </trkpt>
      <trkpt lat="45.80941" lon="6.19663">
        <ele>728</ele>
        <time>2011-04-02T15:36:42Z</time>
      </trkpt>
      <trkpt lat="45.80935" lon="6.19662">
        <ele>731</ele>
        <time>2011-04-02T15:36:52Z</time>
      </trkpt>
      <trkpt lat="45.80929" lon="6.19661">
        <ele>731</ele>
        <time>2011-04-02T15:37:01Z</time>
      </trkpt>
      <trkpt lat="45.80925" lon="6.19657">
        <ele>732</ele>
        <time>2011-04-02T15:37:09Z</time>
      </trkpt>
      <trkpt lat="45.80921" lon="6.19656">
        <ele>731</ele>
        <time>2011-04-02T15:37:17Z</time>
      </trkpt>
      <trkpt lat="45.8092" lon="6.19656">
        <ele>733</ele>
        <time>2011-04-02T15:37:19Z</time>
      </trkpt>
      <trkpt lat="45.80916" lon="6.19653">
        <ele>732</ele>
        <time>2011-04-02T15:37:26Z</time>
      </trkpt>
      <trkpt lat="45.80911" lon="6.19652">
        <ele>733</ele>
        <time>2011-04-02T15:37:35Z</time>
      </trkpt>
      <trkpt lat="45.80906" lon="6.19654">
        <ele>734</ele>
        <time>2011-04-02T15:37:44Z</time>
      </trkpt>
      <trkpt lat="45.809" lon="6.19655">
        <ele>735</ele>
        <time>2011-04-02T15:37:52Z</time>
      </trkpt>
      <trkpt lat="45.80895" lon="6.19658">
        <ele>735</ele>
        <time>2011-04-02T15:38:00Z</time>
      </trkpt>
      <trkpt lat="45.80889" lon="6.19663">
        <ele>737</ele>
        <time>2011-04-02T15:38:10Z</time>
      </trkpt>
      <trkpt lat="45.80882" lon="6.19661">
        <ele>737</ele>
        <time>2011-04-02T15:38:19Z</time>
      </trkpt>
      <trkpt lat="45.80878" lon="6.19665">
        <ele>738</ele>
        <time>2011-04-02T15:38:27Z</time>
      </trkpt>
      <trkpt lat="45.80877" lon="6.19666">
        <ele>738</ele>
        <time>2011-04-02T15:38:28Z</time>
      </trkpt>
      <trkpt lat="45.80873" lon="6.19676">
        <ele>740</ele>
        <time>2011-04-02T15:38:36Z</time>
      </trkpt>
      <trkpt lat="45.80866" lon="6.19684">
        <ele>742</ele>
        <time>2011-04-02T15:38:46Z</time>
      </trkpt>
      <trkpt lat="45.8086" lon="6.19689">
        <ele>743</ele>
        <time>2011-04-02T15:38:53Z</time>
      </trkpt>
      <trkpt lat="45.80851" lon="6.19689">
        <ele>746</ele>
        <time>2011-04-02T15:39:01Z</time>
      </trkpt>
      <trkpt lat="45.80847" lon="6.19689">
        <ele>747</ele>
        <time>2011-04-02T15:39:05Z</time>
      </trkpt>
      <trkpt lat="45.80841" lon="6.19688">
        <ele>749</ele>
        <time>2011-04-02T15:39:14Z</time>
      </trkpt>
      <trkpt lat="45.80839" lon="6.19691">
        <ele>749</ele>
        <time>2011-04-02T15:39:19Z</time>
      </trkpt>
      <trkpt lat="45.80832" lon="6.19696">
        <ele>749</ele>
        <time>2011-04-02T15:39:28Z</time>
      </trkpt>
      <trkpt lat="45.80829" lon="6.19697">
        <ele>750</ele>
        <time>2011-04-02T15:39:31Z</time>
      </trkpt>
      <trkpt lat="45.80822" lon="6.19697">
        <ele>753</ele>
        <time>2011-04-02T15:39:39Z</time>
      </trkpt>
      <trkpt lat="45.80821" lon="6.19698">
        <ele>754</ele>
        <time>2011-04-02T15:39:40Z</time>
      </trkpt>
      <trkpt lat="45.80814" lon="6.19697">
        <ele>755</ele>
        <time>2011-04-02T15:39:44Z</time>
      </trkpt>
      <trkpt lat="45.80806" lon="6.19699">
        <ele>756</ele>
        <time>2011-04-02T15:39:51Z</time>
      </trkpt>
      <trkpt lat="45.80802" lon="6.19699">
        <ele>758</ele>
        <time>2011-04-02T15:39:57Z</time>
      </trkpt>
      <trkpt lat="45.80793" lon="6.19697">
        <ele>760</ele>
        <time>2011-04-02T15:40:06Z</time>
      </trkpt>
      <trkpt lat="45.80787" lon="6.19696">
        <ele>761</ele>
        <time>2011-04-02T15:40:13Z</time>
      </trkpt>
      <trkpt lat="45.8078" lon="6.19693">
        <ele>763</ele>
        <time>2011-04-02T15:40:20Z</time>
      </trkpt>
      <trkpt lat="45.8077" lon="6.19689">
        <ele>764</ele>
        <time>2011-04-02T15:40:27Z</time>
      </trkpt>
      <trkpt lat="45.80768" lon="6.19689">
        <ele>764</ele>
        <time>2011-04-02T15:40:36Z</time>
      </trkpt>
      <trkpt lat="45.80767" lon="6.19685">
        <ele>764</ele>
        <time>2011-04-02T15:45:18Z</time>
      </trkpt>
      <trkpt lat="45.80769" lon="6.1968">
        <ele>763</ele>
        <time>2011-04-02T15:45:26Z</time>
      </trkpt>
      <trkpt lat="45.8077" lon="6.19677">
        <ele>763</ele>
        <time>2011-04-02T15:45:28Z</time>
      </trkpt>
      <trkpt lat="45.80772" lon="6.19667">
        <ele>761</ele>
        <time>2011-04-02T15:45:36Z</time>
      </trkpt>
      <trkpt lat="45.80766" lon="6.19653">
        <ele>759</ele>
        <time>2011-04-02T15:45:46Z</time>
      </trkpt>
      <trkpt lat="45.80764" lon="6.1965">
        <ele>759</ele>
        <time>2011-04-02T15:45:49Z</time>
      </trkpt>
      <trkpt lat="45.80759" lon="6.19644">
        <ele>759</ele>
        <time>2011-04-02T15:45:54Z</time>
      </trkpt>
      <trkpt lat="45.80747" lon="6.19634">
        <ele>758</ele>
        <time>2011-04-02T15:46:04Z</time>
      </trkpt>
      <trkpt lat="45.80739" lon="6.19629">
        <ele>759</ele>
        <time>2011-04-02T15:46:11Z</time>
      </trkpt>
      <trkpt lat="45.80732" lon="6.19624">
        <ele>759</ele>
        <time>2011-04-02T15:46:17Z</time>
      </trkpt>
      <trkpt lat="45.80721" lon="6.19614">
        <ele>757</ele>
        <time>2011-04-02T15:46:25Z</time>
      </trkpt>
      <trkpt lat="45.80713" lon="6.19612">
        <ele>758</ele>
        <time>2011-04-02T15:46:33Z</time>
      </trkpt>
      <trkpt lat="45.80701" lon="6.19609">
        <ele>758</ele>
        <time>2011-04-02T15:46:43Z</time>
      </trkpt>
      <trkpt lat="45.80689" lon="6.19603">
        <ele>759</ele>
        <time>2011-04-02T15:46:52Z</time>
      </trkpt>
      <trkpt lat="45.80679" lon="6.196">
        <ele>760</ele>
        <time>2011-04-02T15:47:00Z</time>
      </trkpt>
      <trkpt lat="45.8067" lon="6.19601">
        <ele>761</ele>
        <time>2011-04-02T15:47:07Z</time>
      </trkpt>
      <trkpt lat="45.80658" lon="6.196">
        <ele>762</ele>
        <time>2011-04-02T15:47:16Z</time>
      </trkpt>
      <trkpt lat="45.80644" lon="6.19598">
        <ele>762</ele>
        <time>2011-04-02T15:47:22Z</time>
      </trkpt>
      <trkpt lat="45.80639" lon="6.19598">
        <ele>762</ele>
        <time>2011-04-02T15:47:26Z</time>
      </trkpt>
      <trkpt lat="45.80625" lon="6.19595">
        <ele>762</ele>
        <time>2011-04-02T15:47:35Z</time>
      </trkpt>
      <trkpt lat="45.80622" lon="6.19576">
        <ele>759</ele>
        <time>2011-04-02T15:47:44Z</time>
      </trkpt>
      <trkpt lat="45.8062" lon="6.19559">
        <ele>757</ele>
        <time>2011-04-02T15:47:53Z</time>
      </trkpt>
      <trkpt lat="45.8061" lon="6.19548">
        <ele>755</ele>
        <time>2011-04-02T15:48:03Z</time>
      </trkpt>
      <trkpt lat="45.80603" lon="6.19539">
        <ele>753</ele>
        <time>2011-04-02T15:48:11Z</time>
      </trkpt>
      <trkpt lat="45.80601" lon="6.19537">
        <ele>752</ele>
        <time>2011-04-02T15:48:13Z</time>
      </trkpt>
      <trkpt lat="45.80599" lon="6.1953">
        <ele>750</ele>
        <time>2011-04-02T15:48:19Z</time>
      </trkpt>
      <trkpt lat="45.80605" lon="6.19525">
        <ele>749</ele>
        <time>2011-04-02T15:48:25Z</time>
      </trkpt>
      <trkpt lat="45.80608" lon="6.19526">
        <ele>749</ele>
        <time>2011-04-02T15:48:28Z</time>
      </trkpt>
      <trkpt lat="45.80617" lon="6.19526">
        <ele>745</ele>
        <time>2011-04-02T15:48:36Z</time>
      </trkpt>
      <trkpt lat="45.80628" lon="6.19531">
        <ele>742</ele>
        <time>2011-04-02T15:48:46Z</time>
      </trkpt>
      <trkpt lat="45.8063" lon="6.19532">
        <ele>742</ele>
        <time>2011-04-02T15:48:48Z</time>
      </trkpt>
      <trkpt lat="45.80632" lon="6.19531">
        <ele>742</ele>
        <time>2011-04-02T15:48:50Z</time>
      </trkpt>
      <trkpt lat="45.80636" lon="6.19529">
        <ele>741</ele>
        <time>2011-04-02T15:48:54Z</time>
      </trkpt>
      <trkpt lat="45.80637" lon="6.19518">
        <ele>739</ele>
        <time>2011-04-02T15:49:02Z</time>
      </trkpt>
      <trkpt lat="45.80636" lon="6.19514">
        <ele>738</ele>
        <time>2011-04-02T15:49:05Z</time>
      </trkpt>
      <trkpt lat="45.80626" lon="6.19507">
        <ele>735</ele>
        <time>2011-04-02T15:49:14Z</time>
      </trkpt>
      <trkpt lat="45.80619" lon="6.195">
        <ele>733</ele>
        <time>2011-04-02T15:49:22Z</time>
      </trkpt>
      <trkpt lat="45.80617" lon="6.19495">
        <ele>732</ele>
        <time>2011-04-02T15:49:25Z</time>
      </trkpt>
      <trkpt lat="45.80621" lon="6.19486">
        <ele>732</ele>
        <time>2011-04-02T15:49:33Z</time>
      </trkpt>
      <trkpt lat="45.80626" lon="6.19485">
        <ele>730</ele>
        <time>2011-04-02T15:49:40Z</time>
      </trkpt>
      <trkpt lat="45.80628" lon="6.19486">
        <ele>730</ele>
        <time>2011-04-02T15:49:42Z</time>
      </trkpt>
      <trkpt lat="45.80636" lon="6.19484">
        <ele>729</ele>
        <time>2011-04-02T15:49:50Z</time>
      </trkpt>
      <trkpt lat="45.80636" lon="6.1948">
        <ele>726</ele>
        <time>2011-04-02T15:49:57Z</time>
      </trkpt>
      <trkpt lat="45.80633" lon="6.1948">
        <ele>726</ele>
        <time>2011-04-02T15:50:00Z</time>
      </trkpt>
      <trkpt lat="45.8063" lon="6.19479">
        <ele>724</ele>
        <time>2011-04-02T15:50:05Z</time>
      </trkpt>
      <trkpt lat="45.80626" lon="6.1947">
        <ele>723</ele>
        <time>2011-04-02T15:50:13Z</time>
      </trkpt>
      <trkpt lat="45.80623" lon="6.19465">
        <ele>724</ele>
        <time>2011-04-02T15:50:20Z</time>
      </trkpt>
      <trkpt lat="45.80622" lon="6.1946">
        <ele>720</ele>
        <time>2011-04-02T15:50:23Z</time>
      </trkpt>
      <trkpt lat="45.80626" lon="6.19449">
        <ele>719</ele>
        <time>2011-04-02T15:50:31Z</time>
      </trkpt>
      <trkpt lat="45.80627" lon="6.19447">
        <ele>718</ele>
        <time>2011-04-02T15:50:33Z</time>
      </trkpt>
      <trkpt lat="45.80634" lon="6.1944">
        <ele>717</ele>
        <time>2011-04-02T15:50:40Z</time>
      </trkpt>
      <trkpt lat="45.80634" lon="6.19434">
        <ele>715</ele>
        <time>2011-04-02T15:50:46Z</time>
      </trkpt>
      <trkpt lat="45.80627" lon="6.19431">
        <ele>713</ele>
        <time>2011-04-02T15:50:55Z</time>
      </trkpt>
      <trkpt lat="45.80626" lon="6.19419">
        <ele>712</ele>
        <time>2011-04-02T15:51:03Z</time>
      </trkpt>
      <trkpt lat="45.80626" lon="6.19412">
        <ele>711</ele>
        <time>2011-04-02T15:51:10Z</time>
      </trkpt>
      <trkpt lat="45.80638" lon="6.19408">
        <ele>709</ele>
        <time>2011-04-02T15:51:20Z</time>
      </trkpt>
      <trkpt lat="45.80643" lon="6.19403">
        <ele>708</ele>
        <time>2011-04-02T15:51:25Z</time>
      </trkpt>
      <trkpt lat="45.8065" lon="6.19394">
        <ele>706</ele>
        <time>2011-04-02T15:51:34Z</time>
      </trkpt>
      <trkpt lat="45.80658" lon="6.19387">
        <ele>703</ele>
        <time>2011-04-02T15:51:43Z</time>
      </trkpt>
      <trkpt lat="45.80671" lon="6.19393">
        <ele>701</ele>
        <time>2011-04-02T15:52:49Z</time>
      </trkpt>
      <trkpt lat="45.80678" lon="6.19394">
        <ele>698</ele>
        <time>2011-04-02T15:52:59Z</time>
      </trkpt>
      <trkpt lat="45.80683" lon="6.19398">
        <ele>697</ele>
        <time>2011-04-02T15:53:04Z</time>
      </trkpt>
      <trkpt lat="45.80693" lon="6.19398">
        <ele>695</ele>
        <time>2011-04-02T15:53:14Z</time>
      </trkpt>
      <trkpt lat="45.80703" lon="6.19396">
        <ele>695</ele>
        <time>2011-04-02T15:53:24Z</time>
      </trkpt>
      <trkpt lat="45.80707" lon="6.19398">
        <ele>693</ele>
        <time>2011-04-02T15:53:32Z</time>
      </trkpt>
      <trkpt lat="45.80716" lon="6.194">
        <ele>692</ele>
        <time>2011-04-02T15:53:41Z</time>
      </trkpt>
      <trkpt lat="45.80724" lon="6.19403">
        <ele>692</ele>
        <time>2011-04-02T15:53:50Z</time>
      </trkpt>
      <trkpt lat="45.80732" lon="6.19401">
        <ele>690</ele>
        <time>2011-04-02T15:53:57Z</time>
      </trkpt>
      <trkpt lat="45.80739" lon="6.19402">
        <ele>689</ele>
        <time>2011-04-02T15:54:03Z</time>
      </trkpt>
      <trkpt lat="45.8075" lon="6.19401">
        <ele>688</ele>
        <time>2011-04-02T15:54:12Z</time>
      </trkpt>
      <trkpt lat="45.80756" lon="6.19402">
        <ele>687</ele>
        <time>2011-04-02T15:54:20Z</time>
      </trkpt>
      <trkpt lat="45.80768" lon="6.19407">
        <ele>685</ele>
        <time>2011-04-02T15:54:28Z</time>
      </trkpt>
      <trkpt lat="45.80774" lon="6.19405">
        <ele>683</ele>
        <time>2011-04-02T15:54:34Z</time>
      </trkpt>
      <trkpt lat="45.80788" lon="6.19407">
        <ele>682</ele>
        <time>2011-04-02T15:54:42Z</time>
      </trkpt>
      <trkpt lat="45.80796" lon="6.19407">
        <ele>682</ele>
        <time>2011-04-02T15:54:48Z</time>
      </trkpt>
      <trkpt lat="45.80807" lon="6.19404">
        <ele>680</ele>
        <time>2011-04-02T15:54:56Z</time>
      </trkpt>
      <trkpt lat="45.80817" lon="6.19401">
        <ele>678</ele>
        <time>2011-04-02T15:55:04Z</time>
      </trkpt>
      <trkpt lat="45.80818" lon="6.194">
        <ele>678</ele>
        <time>2011-04-02T15:55:05Z</time>
      </trkpt>
      <trkpt lat="45.80824" lon="6.19387">
        <ele>677</ele>
        <time>2011-04-02T15:55:14Z</time>
      </trkpt>
      <trkpt lat="45.80829" lon="6.19375">
        <ele>676</ele>
        <time>2011-04-02T15:55:22Z</time>
      </trkpt>
      <trkpt lat="45.80838" lon="6.19373">
        <ele>676</ele>
        <time>2011-04-02T15:55:30Z</time>
      </trkpt>
      <trkpt lat="45.8085" lon="6.19371">
        <ele>677</ele>
        <time>2011-04-02T15:55:39Z</time>
      </trkpt>
      <trkpt lat="45.80863" lon="6.19369">
        <ele>676</ele>
        <time>2011-04-02T15:55:47Z</time>
      </trkpt>
      <trkpt lat="45.80872" lon="6.19364">
        <ele>676</ele>
        <time>2011-04-02T15:55:56Z</time>
      </trkpt>
      <trkpt lat="45.8088" lon="6.19358">
        <ele>675</ele>
        <time>2011-04-02T15:56:03Z</time>
      </trkpt>
      <trkpt lat="45.80893" lon="6.19346">
        <ele>674</ele>
        <time>2011-04-02T15:56:14Z</time>
      </trkpt>
      <trkpt lat="45.80904" lon="6.19337">
        <ele>673</ele>
        <time>2011-04-02T15:56:24Z</time>
      </trkpt>
      <trkpt lat="45.80917" lon="6.19321">
        <ele>672</ele>
        <time>2011-04-02T15:56:35Z</time>
      </trkpt>
      <trkpt lat="45.8093" lon="6.1931">
        <ele>671</ele>
        <time>2011-04-02T15:56:44Z</time>
      </trkpt>
      <trkpt lat="45.80936" lon="6.19301">
        <ele>671</ele>
        <time>2011-04-02T15:56:52Z</time>
      </trkpt>
      <trkpt lat="45.80939" lon="6.19301">
        <ele>671</ele>
        <time>2011-04-02T15:56:54Z</time>
      </trkpt>
      <trkpt lat="45.8095" lon="6.19303">
        <ele>669</ele>
        <time>2011-04-02T15:57:03Z</time>
      </trkpt>
      <trkpt lat="45.80958" lon="6.19304">
        <ele>668</ele>
        <time>2011-04-02T15:57:09Z</time>
      </trkpt>
      <trkpt lat="45.80971" lon="6.19305">
        <ele>667</ele>
        <time>2011-04-02T15:57:17Z</time>
      </trkpt>
      <trkpt lat="45.80987" lon="6.19307">
        <ele>667</ele>
        <time>2011-04-02T15:57:27Z</time>
      </trkpt>
      <trkpt lat="45.80999" lon="6.19307">
        <ele>667</ele>
        <time>2011-04-02T15:57:36Z</time>
      </trkpt>
      <trkpt lat="45.81011" lon="6.19298">
        <ele>667</ele>
        <time>2011-04-02T15:57:47Z</time>
      </trkpt>
      <trkpt lat="45.81022" lon="6.19289">
        <ele>667</ele>
        <time>2011-04-02T15:57:56Z</time>
      </trkpt>
      <trkpt lat="45.81034" lon="6.19279">
        <ele>668</ele>
        <time>2011-04-02T15:58:06Z</time>
      </trkpt>
      <trkpt lat="45.81044" lon="6.19268">
        <ele>668</ele>
        <time>2011-04-02T15:58:16Z</time>
      </trkpt>
      <trkpt lat="45.81053" lon="6.19268">
        <ele>670</ele>
        <time>2011-04-02T15:58:24Z</time>
      </trkpt>
      <trkpt lat="45.81064" lon="6.19269">
        <ele>670</ele>
        <time>2011-04-02T15:58:33Z</time>
      </trkpt>
      <trkpt lat="45.81074" lon="6.19272">
        <ele>670</ele>
        <time>2011-04-02T15:58:40Z</time>
      </trkpt>
      <trkpt lat="45.81077" lon="6.19273">
        <ele>670</ele>
        <time>2011-04-02T15:58:45Z</time>
      </trkpt>
      <trkpt lat="45.81083" lon="6.19272">
        <ele>671</ele>
        <time>2011-04-02T15:58:49Z</time>
      </trkpt>
      <trkpt lat="45.81094" lon="6.19262">
        <ele>671</ele>
        <time>2011-04-02T15:58:58Z</time>
      </trkpt>
      <trkpt lat="45.81105" lon="6.19244">
        <ele>671</ele>
        <time>2011-04-02T15:59:10Z</time>
      </trkpt>
      <trkpt lat="45.81107" lon="6.19243">
        <ele>671</ele>
        <time>2011-04-02T15:59:17Z</time>
      </trkpt>
      <trkpt lat="45.81117" lon="6.19241">
        <ele>671</ele>
        <time>2011-04-02T15:59:51Z</time>
      </trkpt>
      <trkpt lat="45.81118" lon="6.19244">
        <ele>670</ele>
        <time>2011-04-02T15:59:52Z</time>
      </trkpt>
      <trkpt lat="45.81127" lon="6.19256">
        <ele>669</ele>
        <time>2011-04-02T15:59:59Z</time>
      </trkpt>
      <trkpt lat="45.81138" lon="6.19259">
        <ele>668</ele>
        <time>2011-04-02T16:00:09Z</time>
      </trkpt>
      <trkpt lat="45.81153" lon="6.19266">
        <ele>667</ele>
        <time>2011-04-02T16:00:20Z</time>
      </trkpt>
      <trkpt lat="45.81167" lon="6.19272">
        <ele>667</ele>
        <time>2011-04-02T16:00:32Z</time>
      </trkpt>
      <trkpt lat="45.81179" lon="6.19278">
        <ele>666</ele>
        <time>2011-04-02T16:00:42Z</time>
      </trkpt>
      <trkpt lat="45.81186" lon="6.19279">
        <ele>666</ele>
        <time>2011-04-02T16:00:51Z</time>
      </trkpt>
      <trkpt lat="45.8119" lon="6.19278">
        <ele>665</ele>
        <time>2011-04-02T16:00:58Z</time>
      </trkpt>
      <trkpt lat="45.81191" lon="6.19277">
        <ele>665</ele>
        <time>2011-04-02T16:01:03Z</time>
      </trkpt>
      <trkpt lat="45.81196" lon="6.19282">
        <ele>666</ele>
        <time>2011-04-02T16:03:21Z</time>
      </trkpt>
      <trkpt lat="45.81203" lon="6.19286">
        <ele>666</ele>
        <time>2011-04-02T16:03:30Z</time>
      </trkpt>
      <trkpt lat="45.81215" lon="6.19294">
        <ele>666</ele>
        <time>2011-04-02T16:03:42Z</time>
      </trkpt>
      <trkpt lat="45.81228" lon="6.19303">
        <ele>665</ele>
        <time>2011-04-02T16:03:54Z</time>
      </trkpt>
      <trkpt lat="45.81234" lon="6.19308">
        <ele>665</ele>
        <time>2011-04-02T16:04:02Z</time>
      </trkpt>
      <trkpt lat="45.81242" lon="6.19315">
        <ele>664</ele>
        <time>2011-04-02T16:04:10Z</time>
      </trkpt>
      <trkpt lat="45.81247" lon="6.19319">
        <ele>664</ele>
        <time>2011-04-02T16:04:15Z</time>
      </trkpt>
      <trkpt lat="45.81255" lon="6.19325">
        <ele>664</ele>
        <time>2011-04-02T16:04:22Z</time>
      </trkpt>
      <trkpt lat="45.81268" lon="6.19335">
        <ele>664</ele>
        <time>2011-04-02T16:04:31Z</time>
      </trkpt>
      <trkpt lat="45.81284" lon="6.19349">
        <ele>664</ele>
        <time>2011-04-02T16:04:43Z</time>
      </trkpt>
      <trkpt lat="45.81297" lon="6.19358">
        <ele>665</ele>
        <time>2011-04-02T16:04:54Z</time>
      </trkpt>
      <trkpt lat="45.81317" lon="6.1936">
        <ele>664</ele>
        <time>2011-04-02T16:05:08Z</time>
      </trkpt>
      <trkpt lat="45.81333" lon="6.19352">
        <ele>665</ele>
        <time>2011-04-02T16:05:20Z</time>
      </trkpt>
      <trkpt lat="45.81346" lon="6.19347">
        <ele>665</ele>
        <time>2011-04-02T16:05:29Z</time>
      </trkpt>
      <trkpt lat="45.81362" lon="6.19344">
        <ele>664</ele>
        <time>2011-04-02T16:05:40Z</time>
      </trkpt>
      <trkpt lat="45.81377" lon="6.19345">
        <ele>664</ele>
        <time>2011-04-02T16:05:51Z</time>
      </trkpt>
      <trkpt lat="45.81391" lon="6.19349">
        <ele>662</ele>
        <time>2011-04-02T16:06:01Z</time>
      </trkpt>
      <trkpt lat="45.81402" lon="6.19357">
        <ele>661</ele>
        <time>2011-04-02T16:06:11Z</time>
      </trkpt>
      <trkpt lat="45.81411" lon="6.19369">
        <ele>661</ele>
        <time>2011-04-02T16:06:18Z</time>
      </trkpt>
      <trkpt lat="45.81418" lon="6.19382">
        <ele>660</ele>
        <time>2011-04-02T16:06:26Z</time>
      </trkpt>
      <trkpt lat="45.81427" lon="6.19405">
        <ele>657</ele>
        <time>2011-04-02T16:06:39Z</time>
      </trkpt>
      <trkpt lat="45.81434" lon="6.19429">
        <ele>655</ele>
        <time>2011-04-02T16:06:52Z</time>
      </trkpt>
      <trkpt lat="45.81442" lon="6.19443">
        <ele>653</ele>
        <time>2011-04-02T16:07:02Z</time>
      </trkpt>
      <trkpt lat="45.81449" lon="6.19446">
        <ele>652</ele>
        <time>2011-04-02T16:07:09Z</time>
      </trkpt>
      <trkpt lat="45.81461" lon="6.19453">
        <ele>652</ele>
        <time>2011-04-02T16:07:18Z</time>
      </trkpt>
      <trkpt lat="45.81469" lon="6.19457">
        <ele>651</ele>
        <time>2011-04-02T16:07:26Z</time>
      </trkpt>
      <trkpt lat="45.81481" lon="6.19464">
        <ele>650</ele>
        <time>2011-04-02T16:07:34Z</time>
      </trkpt>
      <trkpt lat="45.81497" lon="6.19476">
        <ele>649</ele>
        <time>2011-04-02T16:07:44Z</time>
      </trkpt>
      <trkpt lat="45.81506" lon="6.19484">
        <ele>648</ele>
        <time>2011-04-02T16:07:52Z</time>
      </trkpt>
      <trkpt lat="45.81517" lon="6.19493">
        <ele>647</ele>
        <time>2011-04-02T16:08:02Z</time>
      </trkpt>
      <trkpt lat="45.81524" lon="6.19496">
        <ele>645</ele>
        <time>2011-04-02T16:08:11Z</time>
      </trkpt>
      <trkpt lat="45.81529" lon="6.19497">
        <ele>644</ele>
        <time>2011-04-02T16:08:15Z</time>
      </trkpt>
      <trkpt lat="45.81542" lon="6.19495">
        <ele>644</ele>
        <time>2011-04-02T16:08:24Z</time>
      </trkpt>
      <trkpt lat="45.81552" lon="6.19489">
        <ele>644</ele>
        <time>2011-04-02T16:08:32Z</time>
      </trkpt>
      <trkpt lat="45.81563" lon="6.19475">
        <ele>642</ele>
        <time>2011-04-02T16:08:42Z</time>
      </trkpt>
      <trkpt lat="45.81575" lon="6.1946">
        <ele>642</ele>
        <time>2011-04-02T16:08:53Z</time>
      </trkpt>
      <trkpt lat="45.81589" lon="6.19446">
        <ele>642</ele>
        <time>2011-04-02T16:09:06Z</time>
      </trkpt>
      <trkpt lat="45.81589" lon="6.19444">
        <ele>641</ele>
        <time>2011-04-02T16:11:13Z</time>
      </trkpt>
      <trkpt lat="45.81596" lon="6.1944">
        <ele>639</ele>
        <time>2011-04-02T16:11:21Z</time>
      </trkpt>
      <trkpt lat="45.81604" lon="6.19438">
        <ele>637</ele>
        <time>2011-04-02T16:11:28Z</time>
      </trkpt>
      <trkpt lat="45.81609" lon="6.19436">
        <ele>635</ele>
        <time>2011-04-02T16:11:35Z</time>
      </trkpt>
      <trkpt lat="45.81614" lon="6.19433">
        <ele>632</ele>
        <time>2011-04-02T16:11:40Z</time>
      </trkpt>
      <trkpt lat="45.81625" lon="6.19425">
        <ele>630</ele>
        <time>2011-04-02T16:11:48Z</time>
      </trkpt>
      <trkpt lat="45.81628" lon="6.19422">
        <ele>629</ele>
        <time>2011-04-02T16:11:51Z</time>
      </trkpt>
      <trkpt lat="45.81632" lon="6.19419">
        <ele>628</ele>
        <time>2011-04-02T16:11:55Z</time>
      </trkpt>
      <trkpt lat="45.81643" lon="6.19415">
        <ele>627</ele>
        <time>2011-04-02T16:12:04Z</time>
      </trkpt>
      <trkpt lat="45.81652" lon="6.19409">
        <ele>626</ele>
        <time>2011-04-02T16:12:12Z</time>
      </trkpt>
      <trkpt lat="45.81662" lon="6.19405">
        <ele>625</ele>
        <time>2011-04-02T16:12:20Z</time>
      </trkpt>
      <trkpt lat="45.81663" lon="6.19405">
        <ele>624</ele>
        <time>2011-04-02T16:12:22Z</time>
      </trkpt>
      <trkpt lat="45.81668" lon="6.19406">
        <ele>623</ele>
        <time>2011-04-02T16:12:25Z</time>
      </trkpt>
      <trkpt lat="45.81671" lon="6.19409">
        <ele>621</ele>
        <time>2011-04-02T16:12:28Z</time>
      </trkpt>
      <trkpt lat="45.81683" lon="6.19422">
        <ele>619</ele>
        <time>2011-04-02T16:12:38Z</time>
      </trkpt>
      <trkpt lat="45.81688" lon="6.19434">
        <ele>617</ele>
        <time>2011-04-02T16:12:45Z</time>
      </trkpt>
      <trkpt lat="45.81693" lon="6.19444">
        <ele>615</ele>
        <time>2011-04-02T16:12:53Z</time>
      </trkpt>
      <trkpt lat="45.81697" lon="6.19454">
        <ele>613</ele>
        <time>2011-04-02T16:12:59Z</time>
      </trkpt>
      <trkpt lat="45.81704" lon="6.19467">
        <ele>612</ele>
        <time>2011-04-02T16:13:07Z</time>
      </trkpt>
      <trkpt lat="45.81715" lon="6.19483">
        <ele>611</ele>
        <time>2011-04-02T16:13:17Z</time>
      </trkpt>
      <trkpt lat="45.81727" lon="6.19495">
        <ele>610</ele>
        <time>2011-04-02T16:13:27Z</time>
      </trkpt>
      <trkpt lat="45.81741" lon="6.19507">
        <ele>609</ele>
        <time>2011-04-02T16:13:38Z</time>
      </trkpt>
      <trkpt lat="45.81756" lon="6.19516">
        <ele>607</ele>
        <time>2011-04-02T16:13:49Z</time>
      </trkpt>
      <trkpt lat="45.81769" lon="6.1952">
        <ele>607</ele>
        <time>2011-04-02T16:13:57Z</time>
      </trkpt>
      <trkpt lat="45.81784" lon="6.1952">
        <ele>606</ele>
        <time>2011-04-02T16:14:10Z</time>
      </trkpt>
      <trkpt lat="45.81796" lon="6.19521">
        <ele>605</ele>
        <time>2011-04-02T16:14:20Z</time>
      </trkpt>
      <trkpt lat="45.81812" lon="6.1952">
        <ele>604</ele>
        <time>2011-04-02T16:14:31Z</time>
      </trkpt>
      <trkpt lat="45.81825" lon="6.19523">
        <ele>604</ele>
        <time>2011-04-02T16:14:39Z</time>
      </trkpt>
      <trkpt lat="45.81839" lon="6.19525">
        <ele>602</ele>
        <time>2011-04-02T16:14:48Z</time>
      </trkpt>
      <trkpt lat="45.81854" lon="6.19521">
        <ele>602</ele>
        <time>2011-04-02T16:14:59Z</time>
      </trkpt>
      <trkpt lat="45.8187" lon="6.19514">
        <ele>601</ele>
        <time>2011-04-02T16:15:10Z</time>
      </trkpt>
      <trkpt lat="45.81877" lon="6.19505">
        <ele>601</ele>
        <time>2011-04-02T16:15:18Z</time>
      </trkpt>
      <trkpt lat="45.81884" lon="6.19493">
        <ele>600</ele>
        <time>2011-04-02T16:15:26Z</time>
      </trkpt>
      <trkpt lat="45.81896" lon="6.19482">
        <ele>600</ele>
        <time>2011-04-02T16:15:37Z</time>
      </trkpt>
      <trkpt lat="45.81903" lon="6.19477">
        <ele>599</ele>
        <time>2011-04-02T16:15:41Z</time>
      </trkpt>
      <trkpt lat="45.81918" lon="6.19485">
        <ele>599</ele>
        <time>2011-04-02T16:15:51Z</time>
      </trkpt>
      <trkpt lat="45.8193" lon="6.19501">
        <ele>599</ele>
        <time>2011-04-02T16:15:59Z</time>
      </trkpt>
      <trkpt lat="45.81933" lon="6.19517">
        <ele>597</ele>
        <time>2011-04-02T16:16:08Z</time>
      </trkpt>
      <trkpt lat="45.81929" lon="6.19529">
        <ele>596</ele>
        <time>2011-04-02T16:16:19Z</time>
      </trkpt>
      <trkpt lat="45.81925" lon="6.19532">
        <ele>596</ele>
        <time>2011-04-02T16:16:24Z</time>
      </trkpt>
      <trkpt lat="45.81912" lon="6.19541">
        <ele>595</ele>
        <time>2011-04-02T16:16:36Z</time>
      </trkpt>
      <trkpt lat="45.819" lon="6.19547">
        <ele>594</ele>
        <time>2011-04-02T16:16:47Z</time>
      </trkpt>
      <trkpt lat="45.81891" lon="6.19553">
        <ele>594</ele>
        <time>2011-04-02T16:16:56Z</time>
      </trkpt>
      <trkpt lat="45.81883" lon="6.19559">
        <ele>593</ele>
        <time>2011-04-02T16:17:05Z</time>
      </trkpt>
      <trkpt lat="45.81879" lon="6.1956">
        <ele>593</ele>
        <time>2011-04-02T16:17:11Z</time>
      </trkpt>
      <trkpt lat="45.81872" lon="6.19566">
        <ele>592</ele>
        <time>2011-04-02T16:17:30Z</time>
      </trkpt>
      <trkpt lat="45.8186" lon="6.19574">
        <ele>591</ele>
        <time>2011-04-02T16:17:41Z</time>
      </trkpt>
      <trkpt lat="45.81854" lon="6.19579">
        <ele>591</ele>
        <time>2011-04-02T16:17:48Z</time>
      </trkpt>
      <trkpt lat="45.81841" lon="6.19592">
        <ele>590</ele>
        <time>2011-04-02T16:18:00Z</time>
      </trkpt>
      <trkpt lat="45.81828" lon="6.19605">
        <ele>589</ele>
        <time>2011-04-02T16:18:13Z</time>
      </trkpt>
      <trkpt lat="45.81819" lon="6.19615">
        <ele>589</ele>
        <time>2011-04-02T16:18:23Z</time>
      </trkpt>
      <trkpt lat="45.81829" lon="6.19617">
        <ele>585</ele>
        <time>2011-04-02T16:18:42Z</time>
      </trkpt>
      <trkpt lat="45.81833" lon="6.19615">
        <ele>583</ele>
        <time>2011-04-02T16:18:51Z</time>
      </trkpt>
      <trkpt lat="45.81842" lon="6.19614">
        <ele>580</ele>
        <time>2011-04-02T16:19:00Z</time>
      </trkpt>
      <trkpt lat="45.8185" lon="6.19617">
        <ele>579</ele>
        <time>2011-04-02T16:19:07Z</time>
      </trkpt>
      <trkpt lat="45.8186" lon="6.19621">
        <ele>576</ele>
        <time>2011-04-02T16:19:14Z</time>
      </trkpt>
      <trkpt lat="45.81868" lon="6.19622">
        <ele>575</ele>
        <time>2011-04-02T16:19:20Z</time>
      </trkpt>
      <trkpt lat="45.8188" lon="6.19629">
        <ele>574</ele>
        <time>2011-04-02T16:19:30Z</time>
      </trkpt>
      <trkpt lat="45.8189" lon="6.19635">
        <ele>572</ele>
        <time>2011-04-02T16:19:38Z</time>
      </trkpt>
      <trkpt lat="45.81903" lon="6.1964">
        <ele>571</ele>
        <time>2011-04-02T16:19:48Z</time>
      </trkpt>
      <trkpt lat="45.81916" lon="6.19652">
        <ele>571</ele>
        <time>2011-04-02T16:19:59Z</time>
      </trkpt>
      <trkpt lat="45.81922" lon="6.19663">
        <ele>569</ele>
        <time>2011-04-02T16:20:07Z</time>
      </trkpt>
      <trkpt lat="45.81924" lon="6.19664">
        <ele>570</ele>
        <time>2011-04-02T16:20:09Z</time>
      </trkpt>
      <trkpt lat="45.81932" lon="6.19666">
        <ele>569</ele>
        <time>2011-04-02T16:20:18Z</time>
      </trkpt>
      <trkpt lat="45.81943" lon="6.19668">
        <ele>568</ele>
        <time>2011-04-02T16:20:28Z</time>
      </trkpt>
      <trkpt lat="45.81958" lon="6.19673">
        <ele>568</ele>
        <time>2011-04-02T16:20:38Z</time>
      </trkpt>
      <trkpt lat="45.81971" lon="6.19676">
        <ele>567</ele>
        <time>2011-04-02T16:20:49Z</time>
      </trkpt>
      <trkpt lat="45.81984" lon="6.1968">
        <ele>566</ele>
        <time>2011-04-02T16:20:59Z</time>
      </trkpt>
      <trkpt lat="45.81998" lon="6.19682">
        <ele>565</ele>
        <time>2011-04-02T16:21:10Z</time>
      </trkpt>
      <trkpt lat="45.82003" lon="6.19685">
        <ele>564</ele>
        <time>2011-04-02T16:21:14Z</time>
      </trkpt>
      <trkpt lat="45.82012" lon="6.19685">
        <ele>564</ele>
        <time>2011-04-02T16:21:24Z</time>
      </trkpt>
      <trkpt lat="45.82019" lon="6.19686">
        <ele>563</ele>
        <time>2011-04-02T16:21:31Z</time>
      </trkpt>
      <trkpt lat="45.8202" lon="6.19685">
        <ele>562</ele>
        <time>2011-04-02T16:21:39Z</time>
      </trkpt>
      <trkpt lat="45.82021" lon="6.19684">
        <ele>562</ele>
        <time>2011-04-02T16:22:03Z</time>
      </trkpt>
      <trkpt lat="45.82025" lon="6.19683">
        <ele>561</ele>
        <time>2011-04-02T16:22:12Z</time>
      </trkpt>
      <trkpt lat="45.8203" lon="6.19681">
        <ele>560</ele>
        <time>2011-04-02T16:22:24Z</time>
      </trkpt>
      <trkpt lat="45.82037" lon="6.19679">
        <ele>558</ele>
        <time>2011-04-02T16:22:33Z</time>
      </trkpt>
      <trkpt lat="45.82043" lon="6.19678">
        <ele>557</ele>
        <time>2011-04-02T16:22:39Z</time>
      </trkpt>
      <trkpt lat="45.82046" lon="6.19679">
        <ele>556</ele>
        <time>2011-04-02T16:22:41Z</time>
      </trkpt>
      <trkpt lat="45.82053" lon="6.19677">
        <ele>554</ele>
        <time>2011-04-02T16:22:47Z</time>
      </trkpt>
      <trkpt lat="45.82068" lon="6.19683">
        <ele>551</ele>
        <time>2011-04-02T16:22:59Z</time>
      </trkpt>
      <trkpt lat="45.82082" lon="6.19692">
        <ele>549</ele>
        <time>2011-04-02T16:23:10Z</time>
      </trkpt>
      <trkpt lat="45.82091" lon="6.19697">
        <ele>547</ele>
        <time>2011-04-02T16:23:18Z</time>
      </trkpt>
      <trkpt lat="45.82103" lon="6.19702">
        <ele>545</ele>
        <time>2011-04-02T16:23:27Z</time>
      </trkpt>
      <trkpt lat="45.82115" lon="6.19708">
        <ele>543</ele>
        <time>2011-04-02T16:23:36Z</time>
      </trkpt>
      <trkpt lat="45.82127" lon="6.19715">
        <ele>541</ele>
        <time>2011-04-02T16:23:46Z</time>
      </trkpt>
      <trkpt lat="45.82139" lon="6.19724">
        <ele>538</ele>
        <time>2011-04-02T16:23:57Z</time>
      </trkpt>
      <trkpt lat="45.8215" lon="6.1972">
        <ele>538</ele>
        <time>2011-04-02T16:24:07Z</time>
      </trkpt>
      <trkpt lat="45.82165" lon="6.19715">
        <ele>537</ele>
        <time>2011-04-02T16:24:19Z</time>
      </trkpt>
      <trkpt lat="45.82169" lon="6.19715">
        <ele>536</ele>
        <time>2011-04-02T16:24:24Z</time>
      </trkpt>
      <trkpt lat="45.82174" lon="6.1972">
        <ele>536</ele>
        <time>2011-04-02T16:24:34Z</time>
      </trkpt>
      <trkpt lat="45.82172" lon="6.19724">
        <ele>535</ele>
        <time>2011-04-02T16:24:54Z</time>
      </trkpt>
      <trkpt lat="45.82165" lon="6.19738">
        <ele>535</ele>
        <time>2011-04-02T16:25:05Z</time>
      </trkpt>
      <trkpt lat="45.8216" lon="6.19745">
        <ele>534</ele>
        <time>2011-04-02T16:25:16Z</time>
      </trkpt>
      <trkpt lat="45.82149" lon="6.19756">
        <ele>533</ele>
        <time>2011-04-02T16:25:28Z</time>
      </trkpt>
      <trkpt lat="45.82144" lon="6.19759">
        <ele>533</ele>
        <time>2011-04-02T16:25:35Z</time>
      </trkpt>
      <trkpt lat="45.82136" lon="6.19761">
        <ele>531</ele>
        <time>2011-04-02T16:25:44Z</time>
      </trkpt>
      <trkpt lat="45.82133" lon="6.19762">
        <ele>531</ele>
        <time>2011-04-02T16:25:47Z</time>
      </trkpt>
      <trkpt lat="45.82118" lon="6.19767">
        <ele>530</ele>
        <time>2011-04-02T16:25:57Z</time>
      </trkpt>
      <trkpt lat="45.82104" lon="6.19771">
        <ele>528</ele>
        <time>2011-04-02T16:26:08Z</time>
      </trkpt>
      <trkpt lat="45.82093" lon="6.19776">
        <ele>527</ele>
        <time>2011-04-02T16:26:17Z</time>
      </trkpt>
      <trkpt lat="45.82077" lon="6.19783">
        <ele>527</ele>
        <time>2011-04-02T16:26:29Z</time>
      </trkpt>
      <trkpt lat="45.82062" lon="6.19789">
        <ele>526</ele>
        <time>2011-04-02T16:26:41Z</time>
      </trkpt>
      <trkpt lat="45.82053" lon="6.19794">
        <ele>526</ele>
        <time>2011-04-02T16:26:51Z</time>
      </trkpt>
      <trkpt lat="45.82053" lon="6.19797">
        <ele>525</ele>
        <time>2011-04-02T16:26:55Z</time>
      </trkpt>
      <trkpt lat="45.82055" lon="6.19809">
        <ele>524</ele>
        <time>2011-04-02T16:27:04Z</time>
      </trkpt>
      <trkpt lat="45.8206" lon="6.19815">
        <ele>523</ele>
        <time>2011-04-02T16:27:11Z</time>
      </trkpt>
      <trkpt lat="45.82062" lon="6.19813">
        <ele>522</ele>
        <time>2011-04-02T16:27:17Z</time>
      </trkpt>
      <trkpt lat="45.82073" lon="6.19808">
        <ele>521</ele>
        <time>2011-04-02T16:27:27Z</time>
      </trkpt>
      <trkpt lat="45.82089" lon="6.19803">
        <ele>520</ele>
        <time>2011-04-02T16:27:40Z</time>
      </trkpt>
      <trkpt lat="45.82105" lon="6.19797">
        <ele>518</ele>
        <time>2011-04-02T16:27:53Z</time>
      </trkpt>
      <trkpt lat="45.82117" lon="6.19798">
        <ele>516</ele>
        <time>2011-04-02T16:28:02Z</time>
      </trkpt>
      <trkpt lat="45.82129" lon="6.19808">
        <ele>515</ele>
        <time>2011-04-02T16:28:12Z</time>
      </trkpt>
      <trkpt lat="45.82139" lon="6.19812">
        <ele>514</ele>
        <time>2011-04-02T16:28:21Z</time>
      </trkpt>
      <trkpt lat="45.82152" lon="6.19813">
        <ele>513</ele>
        <time>2011-04-02T16:28:31Z</time>
      </trkpt>
      <trkpt lat="45.82161" lon="6.19812">
        <ele>512</ele>
        <time>2011-04-02T16:28:39Z</time>
      </trkpt>
      <trkpt lat="45.82161" lon="6.19813">
        <ele>512</ele>
        <time>2011-04-02T16:28:40Z</time>
      </trkpt>
      <trkpt lat="45.82175" lon="6.19807">
        <ele>511</ele>
        <time>2011-04-02T16:28:50Z</time>
      </trkpt>
      <trkpt lat="45.8219" lon="6.19797">
        <ele>510</ele>
        <time>2011-04-02T16:29:02Z</time>
      </trkpt>
      <trkpt lat="45.82201" lon="6.19792">
        <ele>509</ele>
        <time>2011-04-02T16:29:11Z</time>
      </trkpt>
      <trkpt lat="45.82211" lon="6.19786">
        <ele>508</ele>
        <time>2011-04-02T16:29:19Z</time>
      </trkpt>
      <trkpt lat="45.82224" lon="6.19781">
        <ele>506</ele>
        <time>2011-04-02T16:29:28Z</time>
      </trkpt>
      <trkpt lat="45.82234" lon="6.19777">
        <ele>505</ele>
        <time>2011-04-02T16:29:36Z</time>
      </trkpt>
      <trkpt lat="45.82245" lon="6.19774">
        <ele>505</ele>
        <time>2011-04-02T16:29:44Z</time>
      </trkpt>
      <trkpt lat="45.82259" lon="6.19768">
        <ele>504</ele>
        <time>2011-04-02T16:29:55Z</time>
      </trkpt>
      <trkpt lat="45.82265" lon="6.19768">
        <ele>504</ele>
        <time>2011-04-02T16:30:00Z</time>
      </trkpt>
      <trkpt lat="45.8227" lon="6.19765">
        <ele>502</ele>
        <time>2011-04-02T16:30:04Z</time>
      </trkpt>
      <trkpt lat="45.82277" lon="6.19762">
        <ele>502</ele>
        <time>2011-04-02T16:30:09Z</time>
      </trkpt>
      <trkpt lat="45.82291" lon="6.19752">
        <ele>500</ele>
        <time>2011-04-02T16:30:20Z</time>
      </trkpt>
      <trkpt lat="45.82304" lon="6.19743">
        <ele>499</ele>
        <time>2011-04-02T16:30:31Z</time>
      </trkpt>
      <trkpt lat="45.82312" lon="6.19741">
        <ele>498</ele>
        <time>2011-04-02T16:30:40Z</time>
      </trkpt>
      <trkpt lat="45.82315" lon="6.19744">
        <ele>497</ele>
        <time>2011-04-02T16:30:51Z</time>
      </trkpt>
      <trkpt lat="45.82316" lon="6.19746">
        <ele>496</ele>
        <time>2011-04-02T16:30:59Z</time>
      </trkpt>
      <trkpt lat="45.82318" lon="6.19749">
        <ele>496</ele>
        <time>2011-04-02T16:31:06Z</time>
      </trkpt>
      <trkpt lat="45.82321" lon="6.19754">
        <ele>496</ele>
        <time>2011-04-02T16:33:58Z</time>
      </trkpt>
      <trkpt lat="45.82322" lon="6.19762">
        <ele>494</ele>
        <time>2011-04-02T16:34:05Z</time>
      </trkpt>
      <trkpt lat="45.82316" lon="6.19766">
        <ele>493</ele>
        <time>2011-04-02T16:34:11Z</time>
      </trkpt>
      <trkpt lat="45.82313" lon="6.19782">
        <ele>492</ele>
        <time>2011-04-02T16:34:22Z</time>
      </trkpt>
      <trkpt lat="45.82312" lon="6.19787">
        <ele>492</ele>
        <time>2011-04-02T16:34:30Z</time>
      </trkpt>
      <trkpt lat="45.82309" lon="6.19787">
        <ele>491</ele>
        <time>2011-04-02T16:34:43Z</time>
      </trkpt>
      <trkpt lat="45.82309" lon="6.19788">
        <ele>491</ele>
        <time>2011-04-02T16:34:44Z</time>
      </trkpt>
      <trkpt lat="45.82302" lon="6.19802">
        <ele>489</ele>
        <time>2011-04-02T16:34:56Z</time>
      </trkpt>
      <trkpt lat="45.82296" lon="6.19812">
        <ele>488</ele>
        <time>2011-04-02T16:35:06Z</time>
      </trkpt>
      <trkpt lat="45.82294" lon="6.19823">
        <ele>488</ele>
        <time>2011-04-02T16:35:12Z</time>
      </trkpt>
      <trkpt lat="45.82296" lon="6.19841">
        <ele>487</ele>
        <time>2011-04-02T16:35:24Z</time>
      </trkpt>
      <trkpt lat="45.82301" lon="6.19855">
        <ele>487</ele>
        <time>2011-04-02T16:35:35Z</time>
      </trkpt>
      <trkpt lat="45.82302" lon="6.1986">
        <ele>487</ele>
        <time>2011-04-02T16:35:41Z</time>
      </trkpt>
      <trkpt lat="45.82304" lon="6.19865">
        <ele>487</ele>
        <time>2011-04-02T16:35:49Z</time>
      </trkpt>
      <trkpt lat="45.82313" lon="6.19869">
        <ele>487</ele>
        <time>2011-04-02T16:35:59Z</time>
      </trkpt>
      <trkpt lat="45.82318" lon="6.19873">
        <ele>486</ele>
        <time>2011-04-02T16:36:07Z</time>
      </trkpt>
      <trkpt lat="45.82322" lon="6.19875">
        <ele>486</ele>
        <time>2011-04-02T16:36:14Z</time>
      </trkpt>
      <trkpt lat="45.82333" lon="6.19883">
        <ele>484</ele>
        <time>2011-04-02T16:36:23Z</time>
      </trkpt>
      <trkpt lat="45.82336" lon="6.19888">
        <ele>484</ele>
        <time>2011-04-02T16:36:30Z</time>
      </trkpt>
      <trkpt lat="45.82345" lon="6.19893">
        <ele>483</ele>
        <time>2011-04-02T16:36:39Z</time>
      </trkpt>
      <trkpt lat="45.8235" lon="6.19895">
        <ele>482</ele>
        <time>2011-04-02T16:36:45Z</time>
      </trkpt>
      <trkpt lat="45.82359" lon="6.199">
        <ele>480</ele>
        <time>2011-04-02T16:36:53Z</time>
      </trkpt>
      <trkpt lat="45.82368" lon="6.1991">
        <ele>480</ele>
        <time>2011-04-02T16:37:00Z</time>
      </trkpt>
      <trkpt lat="45.82378" lon="6.19922">
        <ele>479</ele>
        <time>2011-04-02T16:37:08Z</time>
      </trkpt>
      <trkpt lat="45.82389" lon="6.19935">
        <ele>479</ele>
        <time>2011-04-02T16:37:18Z</time>
      </trkpt>
      <trkpt lat="45.8239" lon="6.19948">
        <ele>478</ele>
        <time>2011-04-02T16:37:27Z</time>
      </trkpt>
      <trkpt lat="45.82393" lon="6.19958">
        <ele>478</ele>
        <time>2011-04-02T16:37:35Z</time>
      </trkpt>
      <trkpt lat="45.82399" lon="6.19972">
        <ele>477</ele>
        <time>2011-04-02T16:37:46Z</time>
      </trkpt>
      <trkpt lat="45.82401" lon="6.19975">
        <ele>477</ele>
        <time>2011-04-02T16:37:48Z</time>
      </trkpt>
      <trkpt lat="45.82409" lon="6.19987">
        <ele>477</ele>
        <time>2011-04-02T16:37:58Z</time>
      </trkpt>
      <trkpt lat="45.82416" lon="6.19993">
        <ele>477</ele>
        <time>2011-04-02T16:38:04Z</time>
      </trkpt>
      <trkpt lat="45.82422" lon="6.20003">
        <ele>477</ele>
        <time>2011-04-02T16:38:13Z</time>
      </trkpt>
      <trkpt lat="45.82426" lon="6.20006">
        <ele>476</ele>
        <time>2011-04-02T16:38:21Z</time>
      </trkpt>
      <trkpt lat="45.82428" lon="6.20009">
        <ele>477</ele>
        <time>2011-04-02T16:38:30Z</time>
      </trkpt>
      <trkpt lat="45.82429" lon="6.2001">
        <ele>476</ele>
        <time>2011-04-02T16:38:51Z</time>
      </trkpt>
      <trkpt lat="45.82435" lon="6.20014">
        <ele>476</ele>
        <time>2011-04-02T16:39:01Z</time>
      </trkpt>
      <trkpt lat="45.82439" lon="6.20016">
        <ele>476</ele>
        <time>2011-04-02T16:39:10Z</time>
      </trkpt>
      <trkpt lat="45.82441" lon="6.20017">
        <ele>476</ele>
        <time>2011-04-02T16:39:12Z</time>
      </trkpt>
      <trkpt lat="45.82448" lon="6.20019">
        <ele>476</ele>
        <time>2011-04-02T16:39:20Z</time>
      </trkpt>
      <trkpt lat="45.82456" lon="6.20022">
        <ele>477</ele>
        <time>2011-04-02T16:39:28Z</time>
      </trkpt>
      <trkpt lat="45.82458" lon="6.20023">
        <ele>476</ele>
        <time>2011-04-02T16:39:30Z</time>
      </trkpt>
      <trkpt lat="45.82465" lon="6.20032">
        <ele>476</ele>
        <time>2011-04-02T16:39:39Z</time>
      </trkpt>
      <trkpt lat="45.82468" lon="6.20037">
        <ele>476</ele>
        <time>2011-04-02T16:39:45Z</time>
      </trkpt>
      <trkpt lat="45.82478" lon="6.20056">
        <ele>475</ele>
        <time>2011-04-02T16:39:54Z</time>
      </trkpt>
      <trkpt lat="45.82484" lon="6.20074">
        <ele>475</ele>
        <time>2011-04-02T16:40:04Z</time>
      </trkpt>
      <trkpt lat="45.82487" lon="6.2009">
        <ele>475</ele>
        <time>2011-04-02T16:40:14Z</time>
      </trkpt>
      <trkpt lat="45.82494" lon="6.20112">
        <ele>476</ele>
        <time>2011-04-02T16:40:26Z</time>
      </trkpt>
      <trkpt lat="45.82495" lon="6.20132">
        <ele>476</ele>
        <time>2011-04-02T16:40:38Z</time>
      </trkpt>
      <trkpt lat="45.82498" lon="6.20152">
        <ele>476</ele>
        <time>2011-04-02T16:40:50Z</time>
      </trkpt>
      <trkpt lat="45.82502" lon="6.20168">
        <ele>476</ele>
        <time>2011-04-02T16:41:00Z</time>
      </trkpt>
      <trkpt lat="45.82507" lon="6.20187">
        <ele>475</ele>
        <time>2011-04-02T16:41:11Z</time>
      </trkpt>
      <trkpt lat="45.82514" lon="6.20206">
        <ele>475</ele>
        <time>2011-04-02T16:41:23Z</time>
      </trkpt>
      <trkpt lat="45.82517" lon="6.20225">
        <ele>474</ele>
        <time>2011-04-02T16:41:33Z</time>
      </trkpt>
      <trkpt lat="45.82521" lon="6.20245">
        <ele>475</ele>
        <time>2011-04-02T16:41:44Z</time>
      </trkpt>
      <trkpt lat="45.82524" lon="6.20263">
        <ele>474</ele>
        <time>2011-04-02T16:41:55Z</time>
      </trkpt>
      <trkpt lat="45.82534" lon="6.2027">
        <ele>473</ele>
        <time>2011-04-02T16:42:06Z</time>
      </trkpt>
      <trkpt lat="45.82542" lon="6.20274">
        <ele>472</ele>
        <time>2011-04-02T16:42:16Z</time>
      </trkpt>
      <trkpt lat="45.82552" lon="6.20282">
        <ele>471</ele>
        <time>2011-04-02T16:42:26Z</time>
      </trkpt>
      <trkpt lat="45.82553" lon="6.20283">
        <ele>471</ele>
        <time>2011-04-02T16:42:28Z</time>
      </trkpt>
      <trkpt lat="45.82557" lon="6.20284">
        <ele>471</ele>
        <time>2011-04-02T16:42:32Z</time>
      </trkpt>
      <trkpt lat="45.82571" lon="6.20292">
        <ele>470</ele>
        <time>2011-04-02T16:42:44Z</time>
      </trkpt>
      <trkpt lat="45.82585" lon="6.20302">
        <ele>469</ele>
        <time>2011-04-02T16:42:56Z</time>
      </trkpt>
      <trkpt lat="45.82596" lon="6.20308">
        <ele>469</ele>
        <time>2011-04-02T16:43:07Z</time>
      </trkpt>
      <trkpt lat="45.82608" lon="6.20318">
        <ele>468</ele>
        <time>2011-04-02T16:43:17Z</time>
      </trkpt>
      <trkpt lat="45.8262" lon="6.20328">
        <ele>468</ele>
        <time>2011-04-02T16:43:27Z</time>
      </trkpt>
      <trkpt lat="45.82631" lon="6.20345">
        <ele>468</ele>
        <time>2011-04-02T16:43:37Z</time>
      </trkpt>
      <trkpt lat="45.8264" lon="6.20358">
        <ele>468</ele>
        <time>2011-04-02T16:43:47Z</time>
      </trkpt>
      <trkpt lat="45.82652" lon="6.20365">
        <ele>466</ele>
        <time>2011-04-02T16:43:58Z</time>
      </trkpt>
      <trkpt lat="45.82664" lon="6.20365">
        <ele>466</ele>
        <time>2011-04-02T16:44:08Z</time>
      </trkpt>
      <trkpt lat="45.82671" lon="6.20372">
        <ele>465</ele>
        <time>2011-04-02T16:44:44Z</time>
      </trkpt>
      <trkpt lat="45.82682" lon="6.20366">
        <ele>464</ele>
        <time>2011-04-02T16:44:55Z</time>
      </trkpt>
      <trkpt lat="45.8269" lon="6.20363">
        <ele>465</ele>
        <time>2011-04-02T16:45:02Z</time>
      </trkpt>
      <trkpt lat="45.82694" lon="6.20362">
        <ele>464</ele>
        <time>2011-04-02T16:45:07Z</time>
      </trkpt>
      <trkpt lat="45.82697" lon="6.20347">
        <ele>465</ele>
        <time>2011-04-02T16:45:18Z</time>
      </trkpt>
      <trkpt lat="45.82699" lon="6.20331">
        <ele>464</ele>
        <time>2011-04-02T16:45:28Z</time>
      </trkpt>
      <trkpt lat="45.82706" lon="6.20314">
        <ele>465</ele>
        <time>2011-04-02T16:45:39Z</time>
      </trkpt>
      <trkpt lat="45.82714" lon="6.20292">
        <ele>464</ele>
        <time>2011-04-02T16:45:53Z</time>
      </trkpt>
      <trkpt lat="45.82718" lon="6.20289">
        <ele>464</ele>
        <time>2011-04-02T16:46:00Z</time>
      </trkpt>
      <trkpt lat="45.82722" lon="6.2028">
        <ele>464</ele>
        <time>2011-04-02T16:46:07Z</time>
      </trkpt>
      <trkpt lat="45.82718" lon="6.20266">
        <ele>464</ele>
        <time>2011-04-02T16:46:18Z</time>
      </trkpt>
      <trkpt lat="45.8272" lon="6.20255">
        <ele>464</ele>
        <time>2011-04-02T16:46:25Z</time>
      </trkpt>
      <trkpt lat="45.82723" lon="6.20241">
        <ele>465</ele>
        <time>2011-04-02T16:46:33Z</time>
      </trkpt>
      <trkpt lat="45.8274" lon="6.20227">
        <ele>464</ele>
        <time>2011-04-02T16:46:48Z</time>
      </trkpt>
      <trkpt lat="45.8275" lon="6.20221">
        <ele>465</ele>
        <time>2011-04-02T16:46:58Z</time>
      </trkpt>
    </trkseg>
  </trk>
</gpx>